<?xml version='1.0' encoding='UTF-8'?>
<gpx version="1.1" creator="https://www.komoot.de" xmlns="http://www.topografix.com/GPX/1/1" xmlns:xsi="http://www.w3.org/2001/XMLSchema-instance" xsi:schemaLocation="http://www.topografix.com/GPX/1/1 http://www.topografix.com/GPX/1/1/gpx.xsd">
  <metadata>
    <name>GVA-MAR - Day 6</name>
    <author>
      <link href="https://www.komoot.de">
        <text>komoot</text>
        <type>text/html</type>
      </link>
    </author>
  </metadata>
  <trk>
    <name>GVA-MAR - Day 6</name>
    <trkseg>
      <trkpt lat="44.756724" lon="4.756101">
        <ele>90.451718</ele>
        <time>2017-06-06T16:01:34.051Z</time>
      </trkpt>
      <trkpt lat="44.756714" lon="4.756305">
        <ele>90.451718</ele>
        <time>2017-06-06T16:01:38.260Z</time>
      </trkpt>
      <trkpt lat="44.756417" lon="4.756286">
        <ele>90.451718</ele>
        <time>2017-06-06T16:01:46.483Z</time>
      </trkpt>
      <trkpt lat="44.756415" lon="4.756500">
        <ele>90.451718</ele>
        <time>2017-06-06T16:01:50.788Z</time>
      </trkpt>
      <trkpt lat="44.756414" lon="4.756601">
        <ele>90.451718</ele>
        <time>2017-06-06T16:01:52.803Z</time>
      </trkpt>
      <trkpt lat="44.756474" lon="4.756788">
        <ele>90.451718</ele>
        <time>2017-06-06T16:01:57.123Z</time>
      </trkpt>
      <trkpt lat="44.756539" lon="4.756871">
        <ele>90.451812</ele>
        <time>2017-06-06T16:01:59.640Z</time>
      </trkpt>
      <trkpt lat="44.756528" lon="4.757019">
        <ele>90.479998</ele>
        <time>2017-06-06T16:02:02.589Z</time>
      </trkpt>
      <trkpt lat="44.756491" lon="4.757086">
        <ele>90.496075</ele>
        <time>2017-06-06T16:02:04.295Z</time>
      </trkpt>
      <trkpt lat="44.756413" lon="4.756994">
        <ele>90.523215</ele>
        <time>2017-06-06T16:02:06.746Z</time>
      </trkpt>
      <trkpt lat="44.756311" lon="4.756957">
        <ele>90.551311</ele>
        <time>2017-06-06T16:02:09.201Z</time>
      </trkpt>
      <trkpt lat="44.756284" lon="4.756957">
        <ele>90.558513</ele>
        <time>2017-06-06T16:02:09.748Z</time>
      </trkpt>
      <trkpt lat="44.756230" lon="4.757069">
        <ele>90.584155</ele>
        <time>2017-06-06T16:02:11.928Z</time>
      </trkpt>
      <trkpt lat="44.756223" lon="4.757220">
        <ele>90.612818</ele>
        <time>2017-06-06T16:02:14.237Z</time>
      </trkpt>
      <trkpt lat="44.756198" lon="4.757219">
        <ele>90.619489</ele>
        <time>2017-06-06T16:02:15.079Z</time>
      </trkpt>
      <trkpt lat="44.755636" lon="4.757209">
        <ele>90.769411</ele>
        <time>2017-06-06T16:02:28.643Z</time>
      </trkpt>
      <trkpt lat="44.755303" lon="4.757351">
        <ele>90.862220</ele>
        <time>2017-06-06T16:02:37.698Z</time>
      </trkpt>
      <trkpt lat="44.754583" lon="4.758153">
        <ele>90.987283</ele>
        <time>2017-06-06T16:03:01.230Z</time>
      </trkpt>
      <trkpt lat="44.753940" lon="4.758792">
        <ele>91.053979</ele>
        <time>2017-06-06T16:03:19.373Z</time>
      </trkpt>
      <trkpt lat="44.753563" lon="4.759144">
        <ele>91.016877</ele>
        <time>2017-06-06T16:03:29.137Z</time>
      </trkpt>
      <trkpt lat="44.753108" lon="4.759601">
        <ele>90.638416</ele>
        <time>2017-06-06T16:03:40.899Z</time>
      </trkpt>
      <trkpt lat="44.752654" lon="4.760287">
        <ele>90.187475</ele>
        <time>2017-06-06T16:03:54.543Z</time>
      </trkpt>
      <trkpt lat="44.752407" lon="4.760536">
        <ele>89.981768</ele>
        <time>2017-06-06T16:04:00.771Z</time>
      </trkpt>
      <trkpt lat="44.751074" lon="4.761229">
        <ele>89.439332</ele>
        <time>2017-06-06T16:04:31.256Z</time>
      </trkpt>
      <trkpt lat="44.750926" lon="4.761314">
        <ele>89.384778</ele>
        <time>2017-06-06T16:04:35.010Z</time>
      </trkpt>
      <trkpt lat="44.750408" lon="4.761611">
        <ele>89.310882</ele>
        <time>2017-06-06T16:04:47.965Z</time>
      </trkpt>
      <trkpt lat="44.749839" lon="4.761843">
        <ele>89.515487</ele>
        <time>2017-06-06T16:05:02.308Z</time>
      </trkpt>
      <trkpt lat="44.748567" lon="4.762273">
        <ele>89.984706</ele>
        <time>2017-06-06T16:05:35.294Z</time>
      </trkpt>
      <trkpt lat="44.745506" lon="4.764127">
        <ele>91.038603</ele>
        <time>2017-06-06T16:06:57.558Z</time>
      </trkpt>
      <trkpt lat="44.745254" lon="4.764459">
        <ele>90.731087</ele>
        <time>2017-06-06T16:07:04.982Z</time>
      </trkpt>
      <trkpt lat="44.744179" lon="4.766913">
        <ele>88.879530</ele>
        <time>2017-06-06T16:07:45.700Z</time>
      </trkpt>
      <trkpt lat="44.743907" lon="4.767614">
        <ele>88.348662</ele>
        <time>2017-06-06T16:07:57.078Z</time>
      </trkpt>
      <trkpt lat="44.743763" lon="4.767876">
        <ele>88.128493</ele>
        <time>2017-06-06T16:08:01.908Z</time>
      </trkpt>
      <trkpt lat="44.743463" lon="4.768248">
        <ele>87.758484</ele>
        <time>2017-06-06T16:08:10.251Z</time>
      </trkpt>
      <trkpt lat="44.742411" lon="4.769294">
        <ele>87.556011</ele>
        <time>2017-06-06T16:08:38.974Z</time>
      </trkpt>
      <trkpt lat="44.741985" lon="4.769837">
        <ele>87.497028</ele>
        <time>2017-06-06T16:08:52.767Z</time>
      </trkpt>
      <trkpt lat="44.741770" lon="4.770061">
        <ele>87.576345</ele>
        <time>2017-06-06T16:08:59.341Z</time>
      </trkpt>
      <trkpt lat="44.741669" lon="4.770166">
        <ele>87.613578</ele>
        <time>2017-06-06T16:09:02.367Z</time>
      </trkpt>
      <trkpt lat="44.741175" lon="4.770599">
        <ele>87.786145</ele>
        <time>2017-06-06T16:09:16.829Z</time>
      </trkpt>
      <trkpt lat="44.739243" lon="4.772282">
        <ele>88.176653</ele>
        <time>2017-06-06T16:10:11.875Z</time>
      </trkpt>
      <trkpt lat="44.738170" lon="4.773112">
        <ele>87.699411</ele>
        <time>2017-06-06T16:10:38.321Z</time>
      </trkpt>
      <trkpt lat="44.737971" lon="4.773243">
        <ele>87.581032</ele>
        <time>2017-06-06T16:10:42.801Z</time>
      </trkpt>
      <trkpt lat="44.737608" lon="4.773478">
        <ele>87.365732</ele>
        <time>2017-06-06T16:10:51.127Z</time>
      </trkpt>
      <trkpt lat="44.737085" lon="4.773758">
        <ele>87.103227</ele>
        <time>2017-06-06T16:11:02.851Z</time>
      </trkpt>
      <trkpt lat="44.735776" lon="4.774199">
        <ele>86.540443</ele>
        <time>2017-06-06T16:11:32.175Z</time>
      </trkpt>
      <trkpt lat="44.734465" lon="4.774567">
        <ele>86.372504</ele>
        <time>2017-06-06T16:12:02.474Z</time>
      </trkpt>
      <trkpt lat="44.734264" lon="4.774572">
        <ele>86.353559</ele>
        <time>2017-06-06T16:12:07.130Z</time>
      </trkpt>
      <trkpt lat="44.734025" lon="4.774492">
        <ele>86.330408</ele>
        <time>2017-06-06T16:12:12.824Z</time>
      </trkpt>
      <trkpt lat="44.732613" lon="4.773763">
        <ele>86.388151</ele>
        <time>2017-06-06T16:12:48.145Z</time>
      </trkpt>
      <trkpt lat="44.732355" lon="4.773703">
        <ele>86.401883</ele>
        <time>2017-06-06T16:12:54.272Z</time>
      </trkpt>
      <trkpt lat="44.727106" lon="4.773167">
        <ele>86.274235</ele>
        <time>2017-06-06T16:14:55.635Z</time>
      </trkpt>
      <trkpt lat="44.726972" lon="4.773189">
        <ele>86.268019</ele>
        <time>2017-06-06T16:14:58.594Z</time>
      </trkpt>
      <trkpt lat="44.726644" lon="4.773442">
        <ele>86.247877</ele>
        <time>2017-06-06T16:15:07.108Z</time>
      </trkpt>
      <trkpt lat="44.726515" lon="4.773731">
        <ele>86.233141</ele>
        <time>2017-06-06T16:15:12.843Z</time>
      </trkpt>
      <trkpt lat="44.726448" lon="4.773881">
        <ele>86.225490</ele>
        <time>2017-06-06T16:15:15.568Z</time>
      </trkpt>
      <trkpt lat="44.726350" lon="4.774100">
        <ele>86.214315</ele>
        <time>2017-06-06T16:15:19.948Z</time>
      </trkpt>
      <trkpt lat="44.726207" lon="4.774303">
        <ele>86.201972</ele>
        <time>2017-06-06T16:15:24.482Z</time>
      </trkpt>
      <trkpt lat="44.726091" lon="4.774403">
        <ele>86.193705</ele>
        <time>2017-06-06T16:15:27.737Z</time>
      </trkpt>
      <trkpt lat="44.725900" lon="4.774459">
        <ele>86.181849</ele>
        <time>2017-06-06T16:15:32.073Z</time>
      </trkpt>
      <trkpt lat="44.722147" lon="4.774580">
        <ele>85.956826</ele>
        <time>2017-06-06T16:16:58.817Z</time>
      </trkpt>
      <trkpt lat="44.721874" lon="4.774631">
        <ele>85.924747</ele>
        <time>2017-06-06T16:17:04.810Z</time>
      </trkpt>
      <trkpt lat="44.721579" lon="4.774729">
        <ele>85.815519</ele>
        <time>2017-06-06T16:17:11.356Z</time>
      </trkpt>
      <trkpt lat="44.719629" lon="4.775783">
        <ele>85.101781</ele>
        <time>2017-06-06T16:17:56.224Z</time>
      </trkpt>
      <trkpt lat="44.719258" lon="4.776028">
        <ele>85.100019</ele>
        <time>2017-06-06T16:18:05.629Z</time>
      </trkpt>
      <trkpt lat="44.718356" lon="4.776832">
        <ele>85.170907</ele>
        <time>2017-06-06T16:18:31.643Z</time>
      </trkpt>
      <trkpt lat="44.717339" lon="4.777932">
        <ele>85.674758</ele>
        <time>2017-06-06T16:19:03.723Z</time>
      </trkpt>
      <trkpt lat="44.716196" lon="4.779091">
        <ele>86.249791</ele>
        <time>2017-06-06T16:19:38.106Z</time>
      </trkpt>
      <trkpt lat="44.715493" lon="4.779548">
        <ele>86.577200</ele>
        <time>2017-06-06T16:19:57.411Z</time>
      </trkpt>
      <trkpt lat="44.715369" lon="4.779852">
        <ele>86.712934</ele>
        <time>2017-06-06T16:20:04.193Z</time>
      </trkpt>
      <trkpt lat="44.715289" lon="4.781232">
        <ele>87.249090</ele>
        <time>2017-06-06T16:20:29.728Z</time>
      </trkpt>
      <trkpt lat="44.715268" lon="4.781344">
        <ele>87.293945</ele>
        <time>2017-06-06T16:20:32.198Z</time>
      </trkpt>
      <trkpt lat="44.715252" lon="4.781428">
        <ele>87.327621</ele>
        <time>2017-06-06T16:20:33.810Z</time>
      </trkpt>
      <trkpt lat="44.715119" lon="4.781576">
        <ele>87.420018</ele>
        <time>2017-06-06T16:20:37.676Z</time>
      </trkpt>
      <trkpt lat="44.715046" lon="4.781673">
        <ele>87.474729</ele>
        <time>2017-06-06T16:20:40.465Z</time>
      </trkpt>
      <trkpt lat="44.714729" lon="4.781694">
        <ele>87.437887</ele>
        <time>2017-06-06T16:20:47.731Z</time>
      </trkpt>
      <trkpt lat="44.711525" lon="4.782626">
        <ele>85.959951</ele>
        <time>2017-06-06T16:21:54.127Z</time>
      </trkpt>
      <trkpt lat="44.710998" lon="4.782783">
        <ele>86.165774</ele>
        <time>2017-06-06T16:22:05.697Z</time>
      </trkpt>
      <trkpt lat="44.710678" lon="4.782654">
        <ele>86.361533</ele>
        <time>2017-06-06T16:22:13.790Z</time>
      </trkpt>
      <trkpt lat="44.710346" lon="4.782444">
        <ele>86.575598</ele>
        <time>2017-06-06T16:22:23.085Z</time>
      </trkpt>
      <trkpt lat="44.710205" lon="4.782438">
        <ele>86.658557</ele>
        <time>2017-06-06T16:22:26.882Z</time>
      </trkpt>
      <trkpt lat="44.708536" lon="4.782619">
        <ele>88.535176</ele>
        <time>2017-06-06T16:23:15.544Z</time>
      </trkpt>
      <trkpt lat="44.707860" lon="4.782660">
        <ele>89.435579</ele>
        <time>2017-06-06T16:23:34.845Z</time>
      </trkpt>
      <trkpt lat="44.707521" lon="4.782747">
        <ele>89.640781</ele>
        <time>2017-06-06T16:23:44.250Z</time>
      </trkpt>
      <trkpt lat="44.707235" lon="4.782893">
        <ele>89.821955</ele>
        <time>2017-06-06T16:23:52.271Z</time>
      </trkpt>
      <trkpt lat="44.705913" lon="4.784310">
        <ele>90.524842</ele>
        <time>2017-06-06T16:24:32.881Z</time>
      </trkpt>
      <trkpt lat="44.704297" lon="4.784992">
        <ele>90.482060</ele>
        <time>2017-06-06T16:25:11.717Z</time>
      </trkpt>
      <trkpt lat="44.701599" lon="4.786216">
        <ele>89.522389</ele>
        <time>2017-06-06T16:26:13.493Z</time>
      </trkpt>
      <trkpt lat="44.699520" lon="4.786881">
        <ele>88.838131</ele>
        <time>2017-06-06T16:27:00.078Z</time>
      </trkpt>
      <trkpt lat="44.699101" lon="4.787015">
        <ele>88.880350</ele>
        <time>2017-06-06T16:27:10.182Z</time>
      </trkpt>
      <trkpt lat="44.698711" lon="4.787050">
        <ele>88.918747</ele>
        <time>2017-06-06T16:27:19.517Z</time>
      </trkpt>
      <trkpt lat="44.698409" lon="4.787131">
        <ele>88.948954</ele>
        <time>2017-06-06T16:27:26.942Z</time>
      </trkpt>
      <trkpt lat="44.697083" lon="4.787644">
        <ele>89.005709</ele>
        <time>2017-06-06T16:27:59.632Z</time>
      </trkpt>
      <trkpt lat="44.695583" lon="4.788105">
        <ele>88.915409</ele>
        <time>2017-06-06T16:28:34.489Z</time>
      </trkpt>
      <trkpt lat="44.695384" lon="4.788164">
        <ele>88.880335</ele>
        <time>2017-06-06T16:28:38.988Z</time>
      </trkpt>
      <trkpt lat="44.694879" lon="4.788316">
        <ele>88.791269</ele>
        <time>2017-06-06T16:28:50.661Z</time>
      </trkpt>
      <trkpt lat="44.694766" lon="4.788350">
        <ele>88.771340</ele>
        <time>2017-06-06T16:28:53.229Z</time>
      </trkpt>
      <trkpt lat="44.693451" lon="4.788794">
        <ele>88.328701</ele>
        <time>2017-06-06T16:29:23.533Z</time>
      </trkpt>
      <trkpt lat="44.689847" lon="4.789935">
        <ele>86.739065</ele>
        <time>2017-06-06T16:30:42.857Z</time>
      </trkpt>
      <trkpt lat="44.689705" lon="4.789964">
        <ele>86.674870</ele>
        <time>2017-06-06T16:30:45.916Z</time>
      </trkpt>
      <trkpt lat="44.689188" lon="4.790069">
        <ele>86.441174</ele>
        <time>2017-06-06T16:30:57.325Z</time>
      </trkpt>
      <trkpt lat="44.689144" lon="4.790077">
        <ele>86.421325</ele>
        <time>2017-06-06T16:30:58.266Z</time>
      </trkpt>
      <trkpt lat="44.689094" lon="4.790086">
        <ele>86.398773</ele>
        <time>2017-06-06T16:30:59.352Z</time>
      </trkpt>
      <trkpt lat="44.688952" lon="4.790110">
        <ele>86.340131</ele>
        <time>2017-06-06T16:31:02.459Z</time>
      </trkpt>
      <trkpt lat="44.688065" lon="4.790483">
        <ele>86.078423</ele>
        <time>2017-06-06T16:31:22.813Z</time>
      </trkpt>
      <trkpt lat="44.686967" lon="4.790816">
        <ele>85.808973</ele>
        <time>2017-06-06T16:31:47.925Z</time>
      </trkpt>
      <trkpt lat="44.685935" lon="4.791101">
        <ele>85.690429</ele>
        <time>2017-06-06T16:32:11.635Z</time>
      </trkpt>
      <trkpt lat="44.685665" lon="4.791171">
        <ele>85.659483</ele>
        <time>2017-06-06T16:32:17.864Z</time>
      </trkpt>
      <trkpt lat="44.682338" lon="4.792296">
        <ele>86.031253</ele>
        <time>2017-06-06T16:33:38.994Z</time>
      </trkpt>
      <trkpt lat="44.682262" lon="4.792250">
        <ele>86.041681</ele>
        <time>2017-06-06T16:33:40.973Z</time>
      </trkpt>
      <trkpt lat="44.682130" lon="4.791801">
        <ele>86.070715</ele>
        <time>2017-06-06T16:33:49.169Z</time>
      </trkpt>
      <trkpt lat="44.682018" lon="4.791591">
        <ele>86.051360</ele>
        <time>2017-06-06T16:33:53.548Z</time>
      </trkpt>
      <trkpt lat="44.681877" lon="4.791422">
        <ele>86.032149</ele>
        <time>2017-06-06T16:33:57.864Z</time>
      </trkpt>
      <trkpt lat="44.681666" lon="4.791258">
        <ele>86.007150</ele>
        <time>2017-06-06T16:34:03.427Z</time>
      </trkpt>
      <trkpt lat="44.681388" lon="4.791189">
        <ele>85.977877</ele>
        <time>2017-06-06T16:34:09.897Z</time>
      </trkpt>
      <trkpt lat="44.681180" lon="4.791195">
        <ele>85.956303</ele>
        <time>2017-06-06T16:34:14.601Z</time>
      </trkpt>
      <trkpt lat="44.680915" lon="4.791340">
        <ele>85.926817</ele>
        <time>2017-06-06T16:34:21.008Z</time>
      </trkpt>
      <trkpt lat="44.679574" lon="4.792888">
        <ele>85.399038</ele>
        <time>2017-06-06T16:34:59.092Z</time>
      </trkpt>
      <trkpt lat="44.679211" lon="4.793188">
        <ele>85.248809</ele>
        <time>2017-06-06T16:35:08.263Z</time>
      </trkpt>
      <trkpt lat="44.678909" lon="4.793293">
        <ele>85.106562</ele>
        <time>2017-06-06T16:35:15.062Z</time>
      </trkpt>
      <trkpt lat="44.677491" lon="4.793398">
        <ele>84.457281</ele>
        <time>2017-06-06T16:35:45.356Z</time>
      </trkpt>
      <trkpt lat="44.677043" lon="4.793264">
        <ele>84.396632</ele>
        <time>2017-06-06T16:35:55.578Z</time>
      </trkpt>
      <trkpt lat="44.676960" lon="4.793216">
        <ele>84.388986</ele>
        <time>2017-06-06T16:35:57.545Z</time>
      </trkpt>
      <trkpt lat="44.676832" lon="4.793142">
        <ele>84.377196</ele>
        <time>2017-06-06T16:36:00.431Z</time>
      </trkpt>
      <trkpt lat="44.676666" lon="4.792996">
        <ele>84.360516</ele>
        <time>2017-06-06T16:36:05.372Z</time>
      </trkpt>
      <trkpt lat="44.676372" lon="4.792634">
        <ele>84.327225</ele>
        <time>2017-06-06T16:36:14.619Z</time>
      </trkpt>
      <trkpt lat="44.676282" lon="4.792466">
        <ele>84.314483</ele>
        <time>2017-06-06T16:36:17.858Z</time>
      </trkpt>
      <trkpt lat="44.676210" lon="4.792331">
        <ele>84.304260</ele>
        <time>2017-06-06T16:36:21.160Z</time>
      </trkpt>
      <trkpt lat="44.676082" lon="4.792005">
        <ele>84.281700</ele>
        <time>2017-06-06T16:36:27.050Z</time>
      </trkpt>
      <trkpt lat="44.676011" lon="4.791632">
        <ele>84.283092</ele>
        <time>2017-06-06T16:36:33.209Z</time>
      </trkpt>
      <trkpt lat="44.675966" lon="4.791247">
        <ele>84.290031</ele>
        <time>2017-06-06T16:36:39.857Z</time>
      </trkpt>
      <trkpt lat="44.675948" lon="4.790679">
        <ele>84.300142</ele>
        <time>2017-06-06T16:36:49.276Z</time>
      </trkpt>
      <trkpt lat="44.675936" lon="4.790345">
        <ele>84.306090</ele>
        <time>2017-06-06T16:36:55.128Z</time>
      </trkpt>
      <trkpt lat="44.675930" lon="4.789904">
        <ele>84.313934</ele>
        <time>2017-06-06T16:37:02.533Z</time>
      </trkpt>
      <trkpt lat="44.675889" lon="4.789776">
        <ele>84.316431</ele>
        <time>2017-06-06T16:37:04.746Z</time>
      </trkpt>
      <trkpt lat="44.675855" lon="4.789821">
        <ele>84.317599</ele>
        <time>2017-06-06T16:37:05.746Z</time>
      </trkpt>
      <trkpt lat="44.675772" lon="4.789870">
        <ele>84.319850</ele>
        <time>2017-06-06T16:37:07.769Z</time>
      </trkpt>
      <trkpt lat="44.673378" lon="4.790005">
        <ele>84.158033</ele>
        <time>2017-06-06T16:37:59.637Z</time>
      </trkpt>
      <trkpt lat="44.673161" lon="4.790057">
        <ele>84.182938</ele>
        <time>2017-06-06T16:38:04.880Z</time>
      </trkpt>
      <trkpt lat="44.673021" lon="4.790155">
        <ele>84.200632</ele>
        <time>2017-06-06T16:38:08.546Z</time>
      </trkpt>
      <trkpt lat="44.672756" lon="4.790373">
        <ele>84.235367</ele>
        <time>2017-06-06T16:38:16.023Z</time>
      </trkpt>
      <trkpt lat="44.671415" lon="4.791472">
        <ele>84.054404</ele>
        <time>2017-06-06T16:38:50.719Z</time>
      </trkpt>
      <trkpt lat="44.671266" lon="4.791598">
        <ele>84.007433</ele>
        <time>2017-06-06T16:38:54.313Z</time>
      </trkpt>
      <trkpt lat="44.670986" lon="4.791836">
        <ele>83.919045</ele>
        <time>2017-06-06T16:39:01.044Z</time>
      </trkpt>
      <trkpt lat="44.670158" lon="4.792537">
        <ele>83.588503</ele>
        <time>2017-06-06T16:39:20.356Z</time>
      </trkpt>
      <trkpt lat="44.669729" lon="4.792797">
        <ele>83.408160</ele>
        <time>2017-06-06T16:39:29.598Z</time>
      </trkpt>
      <trkpt lat="44.669380" lon="4.792873">
        <ele>83.271823</ele>
        <time>2017-06-06T16:39:37.263Z</time>
      </trkpt>
      <trkpt lat="44.669082" lon="4.792868">
        <ele>83.156773</ele>
        <time>2017-06-06T16:39:43.955Z</time>
      </trkpt>
      <trkpt lat="44.668647" lon="4.792761">
        <ele>83.306127</ele>
        <time>2017-06-06T16:39:54.360Z</time>
      </trkpt>
      <trkpt lat="44.668114" lon="4.792603">
        <ele>83.579144</ele>
        <time>2017-06-06T16:40:07.536Z</time>
      </trkpt>
      <trkpt lat="44.667946" lon="4.792553">
        <ele>83.665212</ele>
        <time>2017-06-06T16:40:11.889Z</time>
      </trkpt>
      <trkpt lat="44.667454" lon="4.792371">
        <ele>83.920198</ele>
        <time>2017-06-06T16:40:24.504Z</time>
      </trkpt>
      <trkpt lat="44.666839" lon="4.792062">
        <ele>84.251559</ele>
        <time>2017-06-06T16:40:40.829Z</time>
      </trkpt>
      <trkpt lat="44.665712" lon="4.791352">
        <ele>84.881834</ele>
        <time>2017-06-06T16:41:10.433Z</time>
      </trkpt>
      <trkpt lat="44.665433" lon="4.791090">
        <ele>85.216763</ele>
        <time>2017-06-06T16:41:18.272Z</time>
      </trkpt>
      <trkpt lat="44.665176" lon="4.790848">
        <ele>85.613558</ele>
        <time>2017-06-06T16:41:25.836Z</time>
      </trkpt>
      <trkpt lat="44.665070" lon="4.790741">
        <ele>85.780955</ele>
        <time>2017-06-06T16:41:29.194Z</time>
      </trkpt>
      <trkpt lat="44.664491" lon="4.790080">
        <ele>86.737730</ele>
        <time>2017-06-06T16:41:50.594Z</time>
      </trkpt>
      <trkpt lat="44.664290" lon="4.789924">
        <ele>87.032257</ele>
        <time>2017-06-06T16:41:56.994Z</time>
      </trkpt>
      <trkpt lat="44.664212" lon="4.789915">
        <ele>87.132655</ele>
        <time>2017-06-06T16:41:59.672Z</time>
      </trkpt>
      <trkpt lat="44.664146" lon="4.789937">
        <ele>87.219669</ele>
        <time>2017-06-06T16:42:01.841Z</time>
      </trkpt>
      <trkpt lat="44.663809" lon="4.790117">
        <ele>87.815662</ele>
        <time>2017-06-06T16:42:12.901Z</time>
      </trkpt>
      <trkpt lat="44.663706" lon="4.790183">
        <ele>88.005978</ele>
        <time>2017-06-06T16:42:15.964Z</time>
      </trkpt>
      <trkpt lat="44.663595" lon="4.790306">
        <ele>88.243603</ele>
        <time>2017-06-06T16:42:20.280Z</time>
      </trkpt>
      <trkpt lat="44.663540" lon="4.790367">
        <ele>88.361386</ele>
        <time>2017-06-06T16:42:22.798Z</time>
      </trkpt>
      <trkpt lat="44.663474" lon="4.790575">
        <ele>88.633754</ele>
        <time>2017-06-06T16:42:27.214Z</time>
      </trkpt>
      <trkpt lat="44.663416" lon="4.790758">
        <ele>88.873340</ele>
        <time>2017-06-06T16:42:31.785Z</time>
      </trkpt>
      <trkpt lat="44.661941" lon="4.789987">
        <ele>90.892590</ele>
        <time>2017-06-06T16:43:15.340Z</time>
      </trkpt>
      <trkpt lat="44.661830" lon="4.789927">
        <ele>90.991725</ele>
        <time>2017-06-06T16:43:17.872Z</time>
      </trkpt>
      <trkpt lat="44.661353" lon="4.789670">
        <ele>91.417564</ele>
        <time>2017-06-06T16:43:28.903Z</time>
      </trkpt>
      <trkpt lat="44.661093" lon="4.789526">
        <ele>91.650518</ele>
        <time>2017-06-06T16:43:35.553Z</time>
      </trkpt>
      <trkpt lat="44.660874" lon="4.789412">
        <ele>91.976868</ele>
        <time>2017-06-06T16:43:41.807Z</time>
      </trkpt>
      <trkpt lat="44.660172" lon="4.789034">
        <ele>93.792901</ele>
        <time>2017-06-06T16:44:04.678Z</time>
      </trkpt>
      <trkpt lat="44.660116" lon="4.789003">
        <ele>93.938296</ele>
        <time>2017-06-06T16:44:06.434Z</time>
      </trkpt>
      <trkpt lat="44.659836" lon="4.789776">
        <ele>95.428896</ele>
        <time>2017-06-06T16:44:28.486Z</time>
      </trkpt>
      <trkpt lat="44.659603" lon="4.790039">
        <ele>96.158101</ele>
        <time>2017-06-06T16:44:38.945Z</time>
      </trkpt>
      <trkpt lat="44.659574" lon="4.790085">
        <ele>96.289813</ele>
        <time>2017-06-06T16:44:40.839Z</time>
      </trkpt>
      <trkpt lat="44.659289" lon="4.790211">
        <ele>97.189836</ele>
        <time>2017-06-06T16:44:51.767Z</time>
      </trkpt>
      <trkpt lat="44.658805" lon="4.790493">
        <ele>98.768157</ele>
        <time>2017-06-06T16:45:12.073Z</time>
      </trkpt>
      <trkpt lat="44.658663" lon="4.790526">
        <ele>99.201742</ele>
        <time>2017-06-06T16:45:17.427Z</time>
      </trkpt>
      <trkpt lat="44.657924" lon="4.790430">
        <ele>101.437485</ele>
        <time>2017-06-06T16:45:42.790Z</time>
      </trkpt>
      <trkpt lat="44.657126" lon="4.790533">
        <ele>102.594609</ele>
        <time>2017-06-06T16:46:05.286Z</time>
      </trkpt>
      <trkpt lat="44.657044" lon="4.790543">
        <ele>102.707763</ele>
        <time>2017-06-06T16:46:07.499Z</time>
      </trkpt>
      <trkpt lat="44.656641" lon="4.790597">
        <ele>103.264305</ele>
        <time>2017-06-06T16:46:18.585Z</time>
      </trkpt>
      <trkpt lat="44.656458" lon="4.790665">
        <ele>103.524527</ele>
        <time>2017-06-06T16:46:23.843Z</time>
      </trkpt>
      <trkpt lat="44.656215" lon="4.790790">
        <ele>103.880258</ele>
        <time>2017-06-06T16:46:30.870Z</time>
      </trkpt>
      <trkpt lat="44.655959" lon="4.791143">
        <ele>104.569249</ele>
        <time>2017-06-06T16:46:40.774Z</time>
      </trkpt>
      <trkpt lat="44.654565" lon="4.791364">
        <ele>107.544826</ele>
        <time>2017-06-06T16:47:24.847Z</time>
      </trkpt>
      <trkpt lat="44.652840" lon="4.791996">
        <ele>113.755803</ele>
        <time>2017-06-06T16:48:32.225Z</time>
      </trkpt>
      <trkpt lat="44.652086" lon="4.792062">
        <ele>116.408066</ele>
        <time>2017-06-06T16:49:02.281Z</time>
      </trkpt>
      <trkpt lat="44.651521" lon="4.792195">
        <ele>118.407520</ele>
        <time>2017-06-06T16:49:24.386Z</time>
      </trkpt>
      <trkpt lat="44.650775" lon="4.792485">
        <ele>120.497793</ele>
        <time>2017-06-06T16:49:52.050Z</time>
      </trkpt>
      <trkpt lat="44.650522" lon="4.792680">
        <ele>120.363340</ele>
        <time>2017-06-06T16:50:00.437Z</time>
      </trkpt>
      <trkpt lat="44.650183" lon="4.792742">
        <ele>120.204039</ele>
        <time>2017-06-06T16:50:09.167Z</time>
      </trkpt>
      <trkpt lat="44.649878" lon="4.792719">
        <ele>120.061710</ele>
        <time>2017-06-06T16:50:15.755Z</time>
      </trkpt>
      <trkpt lat="44.649709" lon="4.792707">
        <ele>119.982858</ele>
        <time>2017-06-06T16:50:19.306Z</time>
      </trkpt>
      <trkpt lat="44.650173" lon="4.789932">
        <ele>114.341905</ele>
        <time>2017-06-06T16:50:53.440Z</time>
      </trkpt>
      <trkpt lat="44.650177" lon="4.789666">
        <ele>113.656713</ele>
        <time>2017-06-06T16:50:56.504Z</time>
      </trkpt>
      <trkpt lat="44.650089" lon="4.789149">
        <ele>112.560820</ele>
        <time>2017-06-06T16:51:02.697Z</time>
      </trkpt>
      <trkpt lat="44.650055" lon="4.787864">
        <ele>110.218905</ele>
        <time>2017-06-06T16:51:18.204Z</time>
      </trkpt>
      <trkpt lat="44.650315" lon="4.786499">
        <ele>108.930475</ele>
        <time>2017-06-06T16:51:38.911Z</time>
      </trkpt>
      <trkpt lat="44.650363" lon="4.786264">
        <ele>109.074810</ele>
        <time>2017-06-06T16:51:43.355Z</time>
      </trkpt>
      <trkpt lat="44.649306" lon="4.785858">
        <ele>109.984086</ele>
        <time>2017-06-06T16:52:15.691Z</time>
      </trkpt>
      <trkpt lat="44.648844" lon="4.785665">
        <ele>110.238786</ele>
        <time>2017-06-06T16:52:29.786Z</time>
      </trkpt>
      <trkpt lat="44.648692" lon="4.785569">
        <ele>110.304189</ele>
        <time>2017-06-06T16:52:34.745Z</time>
      </trkpt>
      <trkpt lat="44.647547" lon="4.784844">
        <ele>110.797078</ele>
        <time>2017-06-06T16:53:05.098Z</time>
      </trkpt>
      <trkpt lat="44.646931" lon="4.785152">
        <ele>110.328866</ele>
        <time>2017-06-06T16:53:17.490Z</time>
      </trkpt>
      <trkpt lat="44.646584" lon="4.785345">
        <ele>110.031724</ele>
        <time>2017-06-06T16:53:24.772Z</time>
      </trkpt>
      <trkpt lat="44.646042" lon="4.785796">
        <ele>109.530203</ele>
        <time>2017-06-06T16:53:37.922Z</time>
      </trkpt>
      <trkpt lat="44.645884" lon="4.785847">
        <ele>109.401122</ele>
        <time>2017-06-06T16:53:41.733Z</time>
      </trkpt>
      <trkpt lat="44.645808" lon="4.785821">
        <ele>109.412507</ele>
        <time>2017-06-06T16:53:43.558Z</time>
      </trkpt>
      <trkpt lat="44.645717" lon="4.785764">
        <ele>109.467911</ele>
        <time>2017-06-06T16:53:45.651Z</time>
      </trkpt>
      <trkpt lat="44.645551" lon="4.786164">
        <ele>109.651128</ele>
        <time>2017-06-06T16:53:53.281Z</time>
      </trkpt>
      <trkpt lat="44.645097" lon="4.788020">
        <ele>110.451997</ele>
        <time>2017-06-06T16:54:28.914Z</time>
      </trkpt>
      <trkpt lat="44.644964" lon="4.788363">
        <ele>110.689800</ele>
        <time>2017-06-06T16:54:36.435Z</time>
      </trkpt>
      <trkpt lat="44.644815" lon="4.788583">
        <ele>110.874706</ele>
        <time>2017-06-06T16:54:42.188Z</time>
      </trkpt>
      <trkpt lat="44.644658" lon="4.788717">
        <ele>111.031870</ele>
        <time>2017-06-06T16:54:46.997Z</time>
      </trkpt>
      <trkpt lat="44.644441" lon="4.788835">
        <ele>111.230955</ele>
        <time>2017-06-06T16:54:53.064Z</time>
      </trkpt>
      <trkpt lat="44.643919" lon="4.788943">
        <ele>111.682410</ele>
        <time>2017-06-06T16:55:06.460Z</time>
      </trkpt>
      <trkpt lat="44.642612" lon="4.789017">
        <ele>112.703086</ele>
        <time>2017-06-06T16:55:38.665Z</time>
      </trkpt>
      <trkpt lat="44.642113" lon="4.789087">
        <ele>113.084129</ele>
        <time>2017-06-06T16:55:51.259Z</time>
      </trkpt>
      <trkpt lat="44.641616" lon="4.789216">
        <ele>113.770459</ele>
        <time>2017-06-06T16:56:04.434Z</time>
      </trkpt>
      <trkpt lat="44.641261" lon="4.789339">
        <ele>114.514771</ele>
        <time>2017-06-06T16:56:14.802Z</time>
      </trkpt>
      <trkpt lat="44.640960" lon="4.789495">
        <ele>115.167853</ele>
        <time>2017-06-06T16:56:24.564Z</time>
      </trkpt>
      <trkpt lat="44.640109" lon="4.789999">
        <ele>117.073555</ele>
        <time>2017-06-06T16:56:54.713Z</time>
      </trkpt>
      <trkpt lat="44.639860" lon="4.790183">
        <ele>117.796682</ele>
        <time>2017-06-06T16:57:04.217Z</time>
      </trkpt>
      <trkpt lat="44.639837" lon="4.789130">
        <ele>119.723509</ele>
        <time>2017-06-06T16:57:30.062Z</time>
      </trkpt>
      <trkpt lat="44.639360" lon="4.789189">
        <ele>120.954361</ele>
        <time>2017-06-06T16:57:46.132Z</time>
      </trkpt>
      <trkpt lat="44.638539" lon="4.789403">
        <ele>122.367598</ele>
        <time>2017-06-06T16:58:12.179Z</time>
      </trkpt>
      <trkpt lat="44.636981" lon="4.790052">
        <ele>124.207217</ele>
        <time>2017-06-06T16:58:55.942Z</time>
      </trkpt>
      <trkpt lat="44.636513" lon="4.790157">
        <ele>124.465739</ele>
        <time>2017-06-06T16:59:07.863Z</time>
      </trkpt>
      <trkpt lat="44.635108" lon="4.790350">
        <ele>125.245870</ele>
        <time>2017-06-06T16:59:42.538Z</time>
      </trkpt>
      <trkpt lat="44.634738" lon="4.790521">
        <ele>125.466057</ele>
        <time>2017-06-06T16:59:52.130Z</time>
      </trkpt>
      <trkpt lat="44.634437" lon="4.790613">
        <ele>125.640194</ele>
        <time>2017-06-06T16:59:59.894Z</time>
      </trkpt>
      <trkpt lat="44.634269" lon="4.790570">
        <ele>125.736730</ele>
        <time>2017-06-06T17:00:04.234Z</time>
      </trkpt>
      <trkpt lat="44.633573" lon="4.790235">
        <ele>126.466632</ele>
        <time>2017-06-06T17:00:23.600Z</time>
      </trkpt>
      <trkpt lat="44.631940" lon="4.789314">
        <ele>129.308125</ele>
        <time>2017-06-06T17:01:16.870Z</time>
      </trkpt>
      <trkpt lat="44.631753" lon="4.789281">
        <ele>129.659875</ele>
        <time>2017-06-06T17:01:22.722Z</time>
      </trkpt>
      <trkpt lat="44.631703" lon="4.789272">
        <ele>129.753955</ele>
        <time>2017-06-06T17:01:24.684Z</time>
      </trkpt>
      <trkpt lat="44.630199" lon="4.789089">
        <ele>132.433151</ele>
        <time>2017-06-06T17:02:11.124Z</time>
      </trkpt>
      <trkpt lat="44.628957" lon="4.788802">
        <ele>134.004655</ele>
        <time>2017-06-06T17:02:45.623Z</time>
      </trkpt>
      <trkpt lat="44.627743" lon="4.788625">
        <ele>135.624882</ele>
        <time>2017-06-06T17:03:19.524Z</time>
      </trkpt>
      <trkpt lat="44.627373" lon="4.788652">
        <ele>136.126941</ele>
        <time>2017-06-06T17:03:30.051Z</time>
      </trkpt>
      <trkpt lat="44.625487" lon="4.789001">
        <ele>139.157131</ele>
        <time>2017-06-06T17:04:27.164Z</time>
      </trkpt>
      <trkpt lat="44.624514" lon="4.789189">
        <ele>140.543996</ele>
        <time>2017-06-06T17:04:56.383Z</time>
      </trkpt>
      <trkpt lat="44.624339" lon="4.789024">
        <ele>140.798868</ele>
        <time>2017-06-06T17:05:02.342Z</time>
      </trkpt>
      <trkpt lat="44.624333" lon="4.789019">
        <ele>140.807305</ele>
        <time>2017-06-06T17:05:02.599Z</time>
      </trkpt>
      <trkpt lat="44.623762" lon="4.788577">
        <ele>141.595712</ele>
        <time>2017-06-06T17:05:20.729Z</time>
      </trkpt>
      <trkpt lat="44.622676" lon="4.788931">
        <ele>142.442457</ele>
        <time>2017-06-06T17:05:49.323Z</time>
      </trkpt>
      <trkpt lat="44.622254" lon="4.789070">
        <ele>142.676010</ele>
        <time>2017-06-06T17:06:00.015Z</time>
      </trkpt>
      <trkpt lat="44.620010" lon="4.789361">
        <ele>143.766854</ele>
        <time>2017-06-06T17:06:56.433Z</time>
      </trkpt>
      <trkpt lat="44.619948" lon="4.789358">
        <ele>143.795602</ele>
        <time>2017-06-06T17:06:58.099Z</time>
      </trkpt>
      <trkpt lat="44.618493" lon="4.789332">
        <ele>144.198835</ele>
        <time>2017-06-06T17:07:33.987Z</time>
      </trkpt>
      <trkpt lat="44.618070" lon="4.789345">
        <ele>144.310244</ele>
        <time>2017-06-06T17:07:43.848Z</time>
      </trkpt>
      <trkpt lat="44.616349" lon="4.788927">
        <ele>143.932125</ele>
        <time>2017-06-06T17:08:22.791Z</time>
      </trkpt>
      <trkpt lat="44.614383" lon="4.788426">
        <ele>142.983083</ele>
        <time>2017-06-06T17:09:05.836Z</time>
      </trkpt>
      <trkpt lat="44.614075" lon="4.788491">
        <ele>142.763640</ele>
        <time>2017-06-06T17:09:12.311Z</time>
      </trkpt>
      <trkpt lat="44.613297" lon="4.788893">
        <ele>142.179577</ele>
        <time>2017-06-06T17:09:29.530Z</time>
      </trkpt>
      <trkpt lat="44.612687" lon="4.788992">
        <ele>141.752503</ele>
        <time>2017-06-06T17:09:42.154Z</time>
      </trkpt>
      <trkpt lat="44.610885" lon="4.788824">
        <ele>140.594380</ele>
        <time>2017-06-06T17:10:20.390Z</time>
      </trkpt>
      <trkpt lat="44.610337" lon="4.789105">
        <ele>140.171615</ele>
        <time>2017-06-06T17:10:32.674Z</time>
      </trkpt>
      <trkpt lat="44.609615" lon="4.789348">
        <ele>139.633576</ele>
        <time>2017-06-06T17:10:47.899Z</time>
      </trkpt>
      <trkpt lat="44.608478" lon="4.789485">
        <ele>139.727415</ele>
        <time>2017-06-06T17:11:11.774Z</time>
      </trkpt>
      <trkpt lat="44.607996" lon="4.789589">
        <ele>139.966396</ele>
        <time>2017-06-06T17:11:23.551Z</time>
      </trkpt>
      <trkpt lat="44.607277" lon="4.789552">
        <ele>140.973958</ele>
        <time>2017-06-06T17:11:45.233Z</time>
      </trkpt>
      <trkpt lat="44.606799" lon="4.789455">
        <ele>143.110052</ele>
        <time>2017-06-06T17:12:03.137Z</time>
      </trkpt>
      <trkpt lat="44.606119" lon="4.789165">
        <ele>146.253196</ele>
        <time>2017-06-06T17:12:34.314Z</time>
      </trkpt>
      <trkpt lat="44.605465" lon="4.788811">
        <ele>149.313004</ele>
        <time>2017-06-06T17:13:07.857Z</time>
      </trkpt>
      <trkpt lat="44.604659" lon="4.787777">
        <ele>153.974108</ele>
        <time>2017-06-06T17:13:55.657Z</time>
      </trkpt>
      <trkpt lat="44.603939" lon="4.787224">
        <ele>155.447893</ele>
        <time>2017-06-06T17:14:20.375Z</time>
      </trkpt>
      <trkpt lat="44.603624" lon="4.786744">
        <ele>154.922655</ele>
        <time>2017-06-06T17:14:30.099Z</time>
      </trkpt>
      <trkpt lat="44.602274" lon="4.785591">
        <ele>152.373205</ele>
        <time>2017-06-06T17:14:57.626Z</time>
      </trkpt>
      <trkpt lat="44.602031" lon="4.785163">
        <ele>151.454141</ele>
        <time>2017-06-06T17:15:04.390Z</time>
      </trkpt>
      <trkpt lat="44.600665" lon="4.782939">
        <ele>147.507615</ele>
        <time>2017-06-06T17:15:44.049Z</time>
      </trkpt>
      <trkpt lat="44.600602" lon="4.782896">
        <ele>147.395323</ele>
        <time>2017-06-06T17:15:45.412Z</time>
      </trkpt>
      <trkpt lat="44.600592" lon="4.782807">
        <ele>147.292476</ele>
        <time>2017-06-06T17:15:46.550Z</time>
      </trkpt>
      <trkpt lat="44.600038" lon="4.781968">
        <ele>145.871101</ele>
        <time>2017-06-06T17:16:01.702Z</time>
      </trkpt>
      <trkpt lat="44.599898" lon="4.781641">
        <ele>145.366709</ele>
        <time>2017-06-06T17:16:06.612Z</time>
      </trkpt>
      <trkpt lat="44.600024" lon="4.779683">
        <ele>142.752345</ele>
        <time>2017-06-06T17:16:31.101Z</time>
      </trkpt>
      <trkpt lat="44.600592" lon="4.777337">
        <ele>139.938873</ele>
        <time>2017-06-06T17:17:02.328Z</time>
      </trkpt>
      <trkpt lat="44.600594" lon="4.777142">
        <ele>139.932761</ele>
        <time>2017-06-06T17:17:05.044Z</time>
      </trkpt>
      <trkpt lat="44.600637" lon="4.775721">
        <ele>139.888185</ele>
        <time>2017-06-06T17:17:27.763Z</time>
      </trkpt>
      <trkpt lat="44.600827" lon="4.774731">
        <ele>140.720808</ele>
        <time>2017-06-06T17:17:48.799Z</time>
      </trkpt>
      <trkpt lat="44.601031" lon="4.773868">
        <ele>142.180126</ele>
        <time>2017-06-06T17:18:08.944Z</time>
      </trkpt>
      <trkpt lat="44.601044" lon="4.773357">
        <ele>143.000726</ele>
        <time>2017-06-06T17:18:20.781Z</time>
      </trkpt>
      <trkpt lat="44.600988" lon="4.773096">
        <ele>143.438196</ele>
        <time>2017-06-06T17:18:27.907Z</time>
      </trkpt>
      <trkpt lat="44.600366" lon="4.771765">
        <ele>145.916188</ele>
        <time>2017-06-06T17:19:05.701Z</time>
      </trkpt>
      <trkpt lat="44.600221" lon="4.771404">
        <ele>146.556568</ele>
        <time>2017-06-06T17:19:15.409Z</time>
      </trkpt>
      <trkpt lat="44.600261" lon="4.771024">
        <ele>147.150060</ele>
        <time>2017-06-06T17:19:23.314Z</time>
      </trkpt>
      <trkpt lat="44.600646" lon="4.769604">
        <ele>147.265297</ele>
        <time>2017-06-06T17:19:50.533Z</time>
      </trkpt>
      <trkpt lat="44.600722" lon="4.768092">
        <ele>146.343315</ele>
        <time>2017-06-06T17:20:10.069Z</time>
      </trkpt>
      <trkpt lat="44.600646" lon="4.766968">
        <ele>143.638948</ele>
        <time>2017-06-06T17:20:23.354Z</time>
      </trkpt>
      <trkpt lat="44.599641" lon="4.763153">
        <ele>132.856987</ele>
        <time>2017-06-06T17:21:08.846Z</time>
      </trkpt>
      <trkpt lat="44.599454" lon="4.762306">
        <ele>131.000910</ele>
        <time>2017-06-06T17:21:19.106Z</time>
      </trkpt>
      <trkpt lat="44.598696" lon="4.758210">
        <ele>122.981649</ele>
        <time>2017-06-06T17:22:10.665Z</time>
      </trkpt>
      <trkpt lat="44.598272" lon="4.757429">
        <ele>120.807861</ele>
        <time>2017-06-06T17:22:22.370Z</time>
      </trkpt>
      <trkpt lat="44.597475" lon="4.756878">
        <ele>118.046482</ele>
        <time>2017-06-06T17:22:36.750Z</time>
      </trkpt>
      <trkpt lat="44.596088" lon="4.756542">
        <ele>111.968182</ele>
        <time>2017-06-06T17:22:58.525Z</time>
      </trkpt>
      <trkpt lat="44.595343" lon="4.756177">
        <ele>108.396618</ele>
        <time>2017-06-06T17:23:10.517Z</time>
      </trkpt>
      <trkpt lat="44.595218" lon="4.755985">
        <ele>107.519877</ele>
        <time>2017-06-06T17:23:13.345Z</time>
      </trkpt>
      <trkpt lat="44.595141" lon="4.755787">
        <ele>106.759566</ele>
        <time>2017-06-06T17:23:15.808Z</time>
      </trkpt>
      <trkpt lat="44.595112" lon="4.755568">
        <ele>106.008855</ele>
        <time>2017-06-06T17:23:18.236Z</time>
      </trkpt>
      <trkpt lat="44.595114" lon="4.755395">
        <ele>105.425745</ele>
        <time>2017-06-06T17:23:20.130Z</time>
      </trkpt>
      <trkpt lat="44.595335" lon="4.754926">
        <ele>103.530423</ele>
        <time>2017-06-06T17:23:26.284Z</time>
      </trkpt>
      <trkpt lat="44.595365" lon="4.754766">
        <ele>102.972825</ele>
        <time>2017-06-06T17:23:28.101Z</time>
      </trkpt>
      <trkpt lat="44.595362" lon="4.754632">
        <ele>102.521006</ele>
        <time>2017-06-06T17:23:29.577Z</time>
      </trkpt>
      <trkpt lat="44.595309" lon="4.754484">
        <ele>101.962707</ele>
        <time>2017-06-06T17:23:31.402Z</time>
      </trkpt>
      <trkpt lat="44.593821" lon="4.752882">
        <ele>92.117483</ele>
        <time>2017-06-06T17:23:59.565Z</time>
      </trkpt>
      <trkpt lat="44.593760" lon="4.752730">
        <ele>91.377192</ele>
        <time>2017-06-06T17:24:01.445Z</time>
      </trkpt>
      <trkpt lat="44.593729" lon="4.752277">
        <ele>89.446287</ele>
        <time>2017-06-06T17:24:06.158Z</time>
      </trkpt>
      <trkpt lat="44.593663" lon="4.751944">
        <ele>87.979682</ele>
        <time>2017-06-06T17:24:09.639Z</time>
      </trkpt>
      <trkpt lat="44.593569" lon="4.751944">
        <ele>87.419600</ele>
        <time>2017-06-06T17:24:11.108Z</time>
      </trkpt>
      <trkpt lat="44.593455" lon="4.751139">
        <ele>83.937136</ele>
        <time>2017-06-06T17:24:19.579Z</time>
      </trkpt>
      <trkpt lat="44.593403" lon="4.750553">
        <ele>81.489393</ele>
        <time>2017-06-06T17:24:25.853Z</time>
      </trkpt>
      <trkpt lat="44.593371" lon="4.750287">
        <ele>80.941553</ele>
        <time>2017-06-06T17:24:28.715Z</time>
      </trkpt>
      <trkpt lat="44.593347" lon="4.750091">
        <ele>80.537680</ele>
        <time>2017-06-06T17:24:30.828Z</time>
      </trkpt>
      <trkpt lat="44.593203" lon="4.749496">
        <ele>79.261491</ele>
        <time>2017-06-06T17:24:38.156Z</time>
      </trkpt>
      <trkpt lat="44.592490" lon="4.747303">
        <ele>75.554524</ele>
        <time>2017-06-06T17:25:09.724Z</time>
      </trkpt>
      <trkpt lat="44.591925" lon="4.746591">
        <ele>74.646600</ele>
        <time>2017-06-06T17:25:24.367Z</time>
      </trkpt>
      <trkpt lat="44.591843" lon="4.746490">
        <ele>74.516149</ele>
        <time>2017-06-06T17:25:26.355Z</time>
      </trkpt>
      <trkpt lat="44.591468" lon="4.746024">
        <ele>74.083360</ele>
        <time>2017-06-06T17:25:36.070Z</time>
      </trkpt>
      <trkpt lat="44.589123" lon="4.742125">
        <ele>72.463635</ele>
        <time>2017-06-06T17:26:50.798Z</time>
      </trkpt>
      <trkpt lat="44.588994" lon="4.741824">
        <ele>72.561686</ele>
        <time>2017-06-06T17:26:56.881Z</time>
      </trkpt>
      <trkpt lat="44.588428" lon="4.741283">
        <ele>72.830028</ele>
        <time>2017-06-06T17:27:13.805Z</time>
      </trkpt>
      <trkpt lat="44.588329" lon="4.741188">
        <ele>72.877023</ele>
        <time>2017-06-06T17:27:16.812Z</time>
      </trkpt>
      <trkpt lat="44.587473" lon="4.740270">
        <ele>73.299623</ele>
        <time>2017-06-06T17:27:44.185Z</time>
      </trkpt>
      <trkpt lat="44.587033" lon="4.739523">
        <ele>73.570680</ele>
        <time>2017-06-06T17:28:00.168Z</time>
      </trkpt>
      <trkpt lat="44.585455" lon="4.735335">
        <ele>74.210750</ele>
        <time>2017-06-06T17:29:16.589Z</time>
      </trkpt>
      <trkpt lat="44.585197" lon="4.734234">
        <ele>74.440639</ele>
        <time>2017-06-06T17:29:36.836Z</time>
      </trkpt>
      <trkpt lat="44.585001" lon="4.733065">
        <ele>74.748883</ele>
        <time>2017-06-06T17:29:57.429Z</time>
      </trkpt>
      <trkpt lat="44.584853" lon="4.732634">
        <ele>74.871692</ele>
        <time>2017-06-06T17:30:05.546Z</time>
      </trkpt>
      <trkpt lat="44.584469" lon="4.731336">
        <ele>74.964515</ele>
        <time>2017-06-06T17:30:28.439Z</time>
      </trkpt>
      <trkpt lat="44.584286" lon="4.730716">
        <ele>74.904534</ele>
        <time>2017-06-06T17:30:38.667Z</time>
      </trkpt>
      <trkpt lat="44.584219" lon="4.730521">
        <ele>74.885184</ele>
        <time>2017-06-06T17:30:41.963Z</time>
      </trkpt>
      <trkpt lat="44.584085" lon="4.729847">
        <ele>74.822643</ele>
        <time>2017-06-06T17:30:52.714Z</time>
      </trkpt>
      <trkpt lat="44.583548" lon="4.727830">
        <ele>74.218356</ele>
        <time>2017-06-06T17:31:24.780Z</time>
      </trkpt>
      <trkpt lat="44.583493" lon="4.727742">
        <ele>74.183657</ele>
        <time>2017-06-06T17:31:26.492Z</time>
      </trkpt>
      <trkpt lat="44.583415" lon="4.727679">
        <ele>74.146213</ele>
        <time>2017-06-06T17:31:28.284Z</time>
      </trkpt>
      <trkpt lat="44.583063" lon="4.727530">
        <ele>74.021920</ele>
        <time>2017-06-06T17:31:35.736Z</time>
      </trkpt>
      <trkpt lat="44.582698" lon="4.727395">
        <ele>73.932796</ele>
        <time>2017-06-06T17:31:43.490Z</time>
      </trkpt>
      <trkpt lat="44.582761" lon="4.726766">
        <ele>73.825975</ele>
        <time>2017-06-06T17:31:53.554Z</time>
      </trkpt>
      <trkpt lat="44.582774" lon="4.726637">
        <ele>73.804065</ele>
        <time>2017-06-06T17:31:55.586Z</time>
      </trkpt>
      <trkpt lat="44.582872" lon="4.725942">
        <ele>73.684917</ele>
        <time>2017-06-06T17:32:07.239Z</time>
      </trkpt>
      <trkpt lat="44.582914" lon="4.725644">
        <ele>73.634164</ele>
        <time>2017-06-06T17:32:12.493Z</time>
      </trkpt>
      <trkpt lat="44.582916" lon="4.725616">
        <ele>73.630957</ele>
        <time>2017-06-06T17:32:12.990Z</time>
      </trkpt>
      <trkpt lat="44.582940" lon="4.725229">
        <ele>73.586696</ele>
        <time>2017-06-06T17:32:19.522Z</time>
      </trkpt>
      <trkpt lat="44.582988" lon="4.725008">
        <ele>73.560371</ele>
        <time>2017-06-06T17:32:23.332Z</time>
      </trkpt>
      <trkpt lat="44.583001" lon="4.724949">
        <ele>73.553334</ele>
        <time>2017-06-06T17:32:24.320Z</time>
      </trkpt>
      <trkpt lat="44.583017" lon="4.724937">
        <ele>73.550432</ele>
        <time>2017-06-06T17:32:24.740Z</time>
      </trkpt>
      <trkpt lat="44.583028" lon="4.724886">
        <ele>73.544360</ele>
        <time>2017-06-06T17:32:25.594Z</time>
      </trkpt>
      <trkpt lat="44.583021" lon="4.724863">
        <ele>73.541511</ele>
        <time>2017-06-06T17:32:26.017Z</time>
      </trkpt>
      <trkpt lat="44.583054" lon="4.724844">
        <ele>73.535805</ele>
        <time>2017-06-06T17:32:26.844Z</time>
      </trkpt>
      <trkpt lat="44.583232" lon="4.724671">
        <ele>73.501173</ele>
        <time>2017-06-06T17:32:31.669Z</time>
      </trkpt>
      <trkpt lat="44.583299" lon="4.724305">
        <ele>73.458116</ele>
        <time>2017-06-06T17:32:37.671Z</time>
      </trkpt>
      <trkpt lat="44.583395" lon="4.723760">
        <ele>73.394148</ele>
        <time>2017-06-06T17:32:46.667Z</time>
      </trkpt>
      <trkpt lat="44.583139" lon="4.723576">
        <ele>73.348141</ele>
        <time>2017-06-06T17:32:53.030Z</time>
      </trkpt>
      <trkpt lat="44.582848" lon="4.723386">
        <ele>73.174754</ele>
        <time>2017-06-06T17:33:00.115Z</time>
      </trkpt>
      <trkpt lat="44.582448" lon="4.723418">
        <ele>72.955233</ele>
        <time>2017-06-06T17:33:08.680Z</time>
      </trkpt>
      <trkpt lat="44.581897" lon="4.723523">
        <ele>72.650564</ele>
        <time>2017-06-06T17:33:19.758Z</time>
      </trkpt>
      <trkpt lat="44.581660" lon="4.723512">
        <ele>72.520638</ele>
        <time>2017-06-06T17:33:24.387Z</time>
      </trkpt>
      <trkpt lat="44.581108" lon="4.723346">
        <ele>72.272447</ele>
        <time>2017-06-06T17:33:35.946Z</time>
      </trkpt>
      <trkpt lat="44.580965" lon="4.723303">
        <ele>72.224902</ele>
        <time>2017-06-06T17:33:38.945Z</time>
      </trkpt>
      <trkpt lat="44.579528" lon="4.722853">
        <ele>71.786603</ele>
        <time>2017-06-06T17:34:10.334Z</time>
      </trkpt>
      <trkpt lat="44.579086" lon="4.722489">
        <ele>71.839528</ele>
        <time>2017-06-06T17:34:21.483Z</time>
      </trkpt>
      <trkpt lat="44.578763" lon="4.722287">
        <ele>71.876049</ele>
        <time>2017-06-06T17:34:29.292Z</time>
      </trkpt>
      <trkpt lat="44.578254" lon="4.722051">
        <ele>71.931413</ele>
        <time>2017-06-06T17:34:41.381Z</time>
      </trkpt>
      <trkpt lat="44.578217" lon="4.722034">
        <ele>71.935434</ele>
        <time>2017-06-06T17:34:42.305Z</time>
      </trkpt>
      <trkpt lat="44.577509" lon="4.721670">
        <ele>72.356204</ele>
        <time>2017-06-06T17:35:01.065Z</time>
      </trkpt>
      <trkpt lat="44.576702" lon="4.721116">
        <ele>73.076901</ele>
        <time>2017-06-06T17:35:24.752Z</time>
      </trkpt>
      <trkpt lat="44.576160" lon="4.720823">
        <ele>73.395108</ele>
        <time>2017-06-06T17:35:39.780Z</time>
      </trkpt>
      <trkpt lat="44.576086" lon="4.720783">
        <ele>73.390220</ele>
        <time>2017-06-06T17:35:41.593Z</time>
      </trkpt>
      <trkpt lat="44.575959" lon="4.720627">
        <ele>73.379819</ele>
        <time>2017-06-06T17:35:45.650Z</time>
      </trkpt>
      <trkpt lat="44.575819" lon="4.720437">
        <ele>73.367817</ele>
        <time>2017-06-06T17:35:50.160Z</time>
      </trkpt>
      <trkpt lat="44.575967" lon="4.719885">
        <ele>73.341922</ele>
        <time>2017-06-06T17:35:59.633Z</time>
      </trkpt>
      <trkpt lat="44.576057" lon="4.719406">
        <ele>73.320172</ele>
        <time>2017-06-06T17:36:07.263Z</time>
      </trkpt>
      <trkpt lat="44.576125" lon="4.718925">
        <ele>73.298642</ele>
        <time>2017-06-06T17:36:14.173Z</time>
      </trkpt>
      <trkpt lat="44.576274" lon="4.716636">
        <ele>71.839355</ele>
        <time>2017-06-06T17:36:45.330Z</time>
      </trkpt>
      <trkpt lat="44.576193" lon="4.716634">
        <ele>71.764481</ele>
        <time>2017-06-06T17:36:47.546Z</time>
      </trkpt>
      <trkpt lat="44.576059" lon="4.716568">
        <ele>71.633233</ele>
        <time>2017-06-06T17:36:51.391Z</time>
      </trkpt>
      <trkpt lat="44.573154" lon="4.716208">
        <ele>71.250929</ele>
        <time>2017-06-06T17:38:15.684Z</time>
      </trkpt>
      <trkpt lat="44.572291" lon="4.716101">
        <ele>71.222498</ele>
        <time>2017-06-06T17:38:35.974Z</time>
      </trkpt>
      <trkpt lat="44.566391" lon="4.715315">
        <ele>71.067985</ele>
        <time>2017-06-06T17:40:52.416Z</time>
      </trkpt>
      <trkpt lat="44.561873" lon="4.714760">
        <ele>71.006549</ele>
        <time>2017-06-06T17:42:37.196Z</time>
      </trkpt>
      <trkpt lat="44.559166" lon="4.714428">
        <ele>71.012314</ele>
        <time>2017-06-06T17:43:40.134Z</time>
      </trkpt>
      <trkpt lat="44.558884" lon="4.714394">
        <ele>71.014039</ele>
        <time>2017-06-06T17:43:46.683Z</time>
      </trkpt>
      <trkpt lat="44.558766" lon="4.714379">
        <ele>71.014762</ele>
        <time>2017-06-06T17:43:49.455Z</time>
      </trkpt>
      <trkpt lat="44.556935" lon="4.714395">
        <ele>71.327493</ele>
        <time>2017-06-06T17:44:31.903Z</time>
      </trkpt>
      <trkpt lat="44.555076" lon="4.714652">
        <ele>72.659265</ele>
        <time>2017-06-06T17:45:20.579Z</time>
      </trkpt>
      <trkpt lat="44.554818" lon="4.714687">
        <ele>72.898968</ele>
        <time>2017-06-06T17:45:27.514Z</time>
      </trkpt>
      <trkpt lat="44.554707" lon="4.714680">
        <ele>73.001721</ele>
        <time>2017-06-06T17:45:31.424Z</time>
      </trkpt>
      <trkpt lat="44.554651" lon="4.714640">
        <ele>73.059831</ele>
        <time>2017-06-06T17:45:33.104Z</time>
      </trkpt>
      <trkpt lat="44.554628" lon="4.714571">
        <ele>73.110029</ele>
        <time>2017-06-06T17:45:34.842Z</time>
      </trkpt>
      <trkpt lat="44.554566" lon="4.713996">
        <ele>73.558069</ele>
        <time>2017-06-06T17:45:46.585Z</time>
      </trkpt>
      <trkpt lat="44.554410" lon="4.713314">
        <ele>74.117239</ele>
        <time>2017-06-06T17:46:01.161Z</time>
      </trkpt>
      <trkpt lat="44.554293" lon="4.712983">
        <ele>74.405683</ele>
        <time>2017-06-06T17:46:08.192Z</time>
      </trkpt>
      <trkpt lat="44.554204" lon="4.712882">
        <ele>74.531077</ele>
        <time>2017-06-06T17:46:11.929Z</time>
      </trkpt>
      <trkpt lat="44.554125" lon="4.712878">
        <ele>74.617681</ele>
        <time>2017-06-06T17:46:14.103Z</time>
      </trkpt>
      <trkpt lat="44.554049" lon="4.712923">
        <ele>74.708050</ele>
        <time>2017-06-06T17:46:16.717Z</time>
      </trkpt>
      <trkpt lat="44.554042" lon="4.712997">
        <ele>74.766326</ele>
        <time>2017-06-06T17:46:17.719Z</time>
      </trkpt>
      <trkpt lat="44.554141" lon="4.713326">
        <ele>75.045127</ele>
        <time>2017-06-06T17:46:24.440Z</time>
      </trkpt>
      <trkpt lat="44.554128" lon="4.713440">
        <ele>75.118924</ele>
        <time>2017-06-06T17:46:26.541Z</time>
      </trkpt>
      <trkpt lat="44.554076" lon="4.713548">
        <ele>75.146889</ele>
        <time>2017-06-06T17:46:28.670Z</time>
      </trkpt>
      <trkpt lat="44.553992" lon="4.713596">
        <ele>75.174197</ele>
        <time>2017-06-06T17:46:30.947Z</time>
      </trkpt>
      <trkpt lat="44.553259" lon="4.713734">
        <ele>75.396871</ele>
        <time>2017-06-06T17:46:48.953Z</time>
      </trkpt>
      <trkpt lat="44.551694" lon="4.714369">
        <ele>75.513256</ele>
        <time>2017-06-06T17:47:27.715Z</time>
      </trkpt>
      <trkpt lat="44.550640" lon="4.714719">
        <ele>75.273208</ele>
        <time>2017-06-06T17:47:51.548Z</time>
      </trkpt>
      <trkpt lat="44.550323" lon="4.715022">
        <ele>74.923718</ele>
        <time>2017-06-06T17:47:59.398Z</time>
      </trkpt>
      <trkpt lat="44.549910" lon="4.715708">
        <ele>74.340585</ele>
        <time>2017-06-06T17:48:12.162Z</time>
      </trkpt>
      <trkpt lat="44.549502" lon="4.715860">
        <ele>73.955940</ele>
        <time>2017-06-06T17:48:20.617Z</time>
      </trkpt>
      <trkpt lat="44.549072" lon="4.716105">
        <ele>73.645086</ele>
        <time>2017-06-06T17:48:30.002Z</time>
      </trkpt>
      <trkpt lat="44.548973" lon="4.716297">
        <ele>73.602658</ele>
        <time>2017-06-06T17:48:33.487Z</time>
      </trkpt>
      <trkpt lat="44.548805" lon="4.716519">
        <ele>73.544685</ele>
        <time>2017-06-06T17:48:38.353Z</time>
      </trkpt>
      <trkpt lat="44.548661" lon="4.716632">
        <ele>73.503236</ele>
        <time>2017-06-06T17:48:41.903Z</time>
      </trkpt>
      <trkpt lat="44.548263" lon="4.716778">
        <ele>73.399891</ele>
        <time>2017-06-06T17:48:51.056Z</time>
      </trkpt>
      <trkpt lat="44.547437" lon="4.716731">
        <ele>73.334054</ele>
        <time>2017-06-06T17:49:11.083Z</time>
      </trkpt>
      <trkpt lat="44.546146" lon="4.717227">
        <ele>74.090197</ele>
        <time>2017-06-06T17:49:45.566Z</time>
      </trkpt>
      <trkpt lat="44.541977" lon="4.719660">
        <ele>76.927160</ele>
        <time>2017-06-06T17:51:40.728Z</time>
      </trkpt>
      <trkpt lat="44.539336" lon="4.721146">
        <ele>79.482204</ele>
        <time>2017-06-06T17:52:58.505Z</time>
      </trkpt>
      <trkpt lat="44.539166" lon="4.721146">
        <ele>79.594603</ele>
        <time>2017-06-06T17:53:02.728Z</time>
      </trkpt>
      <trkpt lat="44.538684" lon="4.720886">
        <ele>79.623019</ele>
        <time>2017-06-06T17:53:15.106Z</time>
      </trkpt>
      <trkpt lat="44.538151" lon="4.720784">
        <ele>79.652620</ele>
        <time>2017-06-06T17:53:27.286Z</time>
      </trkpt>
      <trkpt lat="44.537228" lon="4.720908">
        <ele>79.772230</ele>
        <time>2017-06-06T17:53:48.049Z</time>
      </trkpt>
      <trkpt lat="44.536995" lon="4.720993">
        <ele>79.856430</ele>
        <time>2017-06-06T17:53:53.547Z</time>
      </trkpt>
      <trkpt lat="44.536703" lon="4.721246">
        <ele>79.976462</ele>
        <time>2017-06-06T17:54:01.667Z</time>
      </trkpt>
      <trkpt lat="44.535306" lon="4.722934">
        <ele>80.874345</ele>
        <time>2017-06-06T17:54:49.533Z</time>
      </trkpt>
      <trkpt lat="44.535059" lon="4.723337">
        <ele>81.118095</ele>
        <time>2017-06-06T17:54:59.643Z</time>
      </trkpt>
      <trkpt lat="44.534911" lon="4.723648">
        <ele>81.289590</ele>
        <time>2017-06-06T17:55:06.620Z</time>
      </trkpt>
      <trkpt lat="44.534887" lon="4.723855">
        <ele>81.385772</ele>
        <time>2017-06-06T17:55:10.403Z</time>
      </trkpt>
      <trkpt lat="44.534799" lon="4.723972">
        <ele>81.463777</ele>
        <time>2017-06-06T17:55:13.481Z</time>
      </trkpt>
      <trkpt lat="44.534723" lon="4.723936">
        <ele>81.466775</ele>
        <time>2017-06-06T17:55:15.496Z</time>
      </trkpt>
      <trkpt lat="44.534087" lon="4.722987">
        <ele>81.305262</ele>
        <time>2017-06-06T17:55:37.195Z</time>
      </trkpt>
      <trkpt lat="44.533994" lon="4.723031">
        <ele>81.288189</ele>
        <time>2017-06-06T17:55:39.416Z</time>
      </trkpt>
      <trkpt lat="44.533944" lon="4.723068">
        <ele>81.278355</ele>
        <time>2017-06-06T17:55:40.616Z</time>
      </trkpt>
      <trkpt lat="44.533649" lon="4.722899">
        <ele>81.222926</ele>
        <time>2017-06-06T17:55:47.474Z</time>
      </trkpt>
      <trkpt lat="44.532289" lon="4.723409">
        <ele>80.384424</ele>
        <time>2017-06-06T17:56:16.483Z</time>
      </trkpt>
      <trkpt lat="44.531187" lon="4.723782">
        <ele>79.710548</ele>
        <time>2017-06-06T17:56:40.224Z</time>
      </trkpt>
      <trkpt lat="44.530052" lon="4.724126">
        <ele>79.299961</ele>
        <time>2017-06-06T17:57:05.951Z</time>
      </trkpt>
      <trkpt lat="44.529959" lon="4.724125">
        <ele>79.267076</ele>
        <time>2017-06-06T17:57:08.050Z</time>
      </trkpt>
      <trkpt lat="44.529118" lon="4.723896">
        <ele>79.124317</ele>
        <time>2017-06-06T17:57:27.506Z</time>
      </trkpt>
      <trkpt lat="44.527617" lon="4.723581">
        <ele>78.902756</ele>
        <time>2017-06-06T17:58:01.946Z</time>
      </trkpt>
      <trkpt lat="44.526409" lon="4.723260">
        <ele>78.675885</ele>
        <time>2017-06-06T17:58:29.567Z</time>
      </trkpt>
      <trkpt lat="44.525854" lon="4.723132">
        <ele>78.404580</ele>
        <time>2017-06-06T17:58:42.081Z</time>
      </trkpt>
      <trkpt lat="44.525275" lon="4.723024">
        <ele>78.069249</ele>
        <time>2017-06-06T17:58:54.673Z</time>
      </trkpt>
      <trkpt lat="44.525141" lon="4.723070">
        <ele>77.990049</ele>
        <time>2017-06-06T17:58:57.588Z</time>
      </trkpt>
      <trkpt lat="44.524387" lon="4.723521">
        <ele>77.412655</ele>
        <time>2017-06-06T17:59:14.429Z</time>
      </trkpt>
      <trkpt lat="44.524056" lon="4.723727">
        <ele>76.981337</ele>
        <time>2017-06-06T17:59:21.660Z</time>
      </trkpt>
      <trkpt lat="44.523504" lon="4.724071">
        <ele>76.261882</ele>
        <time>2017-06-06T17:59:33.538Z</time>
      </trkpt>
      <trkpt lat="44.523063" lon="4.724236">
        <ele>75.718244</ele>
        <time>2017-06-06T17:59:42.190Z</time>
      </trkpt>
      <trkpt lat="44.522083" lon="4.724247">
        <ele>74.807659</ele>
        <time>2017-06-06T18:00:01.876Z</time>
      </trkpt>
      <trkpt lat="44.521673" lon="4.724234">
        <ele>74.454673</ele>
        <time>2017-06-06T18:00:10.345Z</time>
      </trkpt>
      <trkpt lat="44.521565" lon="4.724434">
        <ele>74.300707</ele>
        <time>2017-06-06T18:00:14.160Z</time>
      </trkpt>
      <trkpt lat="44.521451" lon="4.724525">
        <ele>74.187806</ele>
        <time>2017-06-06T18:00:16.960Z</time>
      </trkpt>
      <trkpt lat="44.521335" lon="4.724583">
        <ele>74.081808</ele>
        <time>2017-06-06T18:00:19.511Z</time>
      </trkpt>
      <trkpt lat="44.520627" lon="4.725315">
        <ele>73.564445</ele>
        <time>2017-06-06T18:00:38.389Z</time>
      </trkpt>
      <trkpt lat="44.520513" lon="4.725386">
        <ele>73.499718</ele>
        <time>2017-06-06T18:00:41.046Z</time>
      </trkpt>
      <trkpt lat="44.519529" lon="4.725364">
        <ele>72.988746</ele>
        <time>2017-06-06T18:01:02.284Z</time>
      </trkpt>
      <trkpt lat="44.517849" lon="4.725034">
        <ele>72.065736</ele>
        <time>2017-06-06T18:01:37.934Z</time>
      </trkpt>
      <trkpt lat="44.517500" lon="4.724744">
        <ele>72.047935</ele>
        <time>2017-06-06T18:01:46.942Z</time>
      </trkpt>
      <trkpt lat="44.515390" lon="4.723890">
        <ele>72.526258</ele>
        <time>2017-06-06T18:02:40.037Z</time>
      </trkpt>
      <trkpt lat="44.512480" lon="4.722612">
        <ele>74.043070</ele>
        <time>2017-06-06T18:03:57.999Z</time>
      </trkpt>
      <trkpt lat="44.512411" lon="4.722517">
        <ele>74.036115</ele>
        <time>2017-06-06T18:04:00.675Z</time>
      </trkpt>
      <trkpt lat="44.512360" lon="4.722351">
        <ele>74.026844</ele>
        <time>2017-06-06T18:04:03.708Z</time>
      </trkpt>
      <trkpt lat="44.512122" lon="4.720810">
        <ele>73.945977</ele>
        <time>2017-06-06T18:04:29.229Z</time>
      </trkpt>
      <trkpt lat="44.512131" lon="4.720602">
        <ele>73.935289</ele>
        <time>2017-06-06T18:04:33.151Z</time>
      </trkpt>
      <trkpt lat="44.512184" lon="4.720441">
        <ele>73.926194</ele>
        <time>2017-06-06T18:04:35.631Z</time>
      </trkpt>
      <trkpt lat="44.512157" lon="4.720360">
        <ele>73.858621</ele>
        <time>2017-06-06T18:04:36.752Z</time>
      </trkpt>
      <trkpt lat="44.512134" lon="4.720185">
        <ele>73.703122</ele>
        <time>2017-06-06T18:04:39.980Z</time>
      </trkpt>
      <trkpt lat="44.512132" lon="4.719973">
        <ele>73.517851</ele>
        <time>2017-06-06T18:04:43.071Z</time>
      </trkpt>
      <trkpt lat="44.512120" lon="4.719866">
        <ele>73.423200</ele>
        <time>2017-06-06T18:04:44.394Z</time>
      </trkpt>
      <trkpt lat="44.512042" lon="4.719280">
        <ele>72.902280</ele>
        <time>2017-06-06T18:04:52.935Z</time>
      </trkpt>
      <trkpt lat="44.511851" lon="4.718825">
        <ele>72.440903</ele>
        <time>2017-06-06T18:05:00.166Z</time>
      </trkpt>
      <trkpt lat="44.511686" lon="4.718620">
        <ele>72.170767</ele>
        <time>2017-06-06T18:05:04.314Z</time>
      </trkpt>
      <trkpt lat="44.510615" lon="4.717619">
        <ele>70.964893</ele>
        <time>2017-06-06T18:05:29.263Z</time>
      </trkpt>
      <trkpt lat="44.509999" lon="4.716969">
        <ele>70.331222</ele>
        <time>2017-06-06T18:05:46.141Z</time>
      </trkpt>
      <trkpt lat="44.509639" lon="4.716474">
        <ele>70.432671</ele>
        <time>2017-06-06T18:05:58.080Z</time>
      </trkpt>
      <trkpt lat="44.509582" lon="4.716397">
        <ele>70.470491</ele>
        <time>2017-06-06T18:05:59.824Z</time>
      </trkpt>
      <trkpt lat="44.509531" lon="4.716320">
        <ele>70.506301</ele>
        <time>2017-06-06T18:06:02.035Z</time>
      </trkpt>
      <trkpt lat="44.509339" lon="4.716063">
        <ele>70.633136</ele>
        <time>2017-06-06T18:06:08.494Z</time>
      </trkpt>
      <trkpt lat="44.509078" lon="4.715815">
        <ele>70.783790</ele>
        <time>2017-06-06T18:06:16.804Z</time>
      </trkpt>
      <trkpt lat="44.508706" lon="4.715552">
        <ele>70.982863</ele>
        <time>2017-06-06T18:06:27.798Z</time>
      </trkpt>
      <trkpt lat="44.507254" lon="4.714849">
        <ele>71.586149</ele>
        <time>2017-06-06T18:07:07.620Z</time>
      </trkpt>
      <trkpt lat="44.507074" lon="4.714540">
        <ele>71.693182</ele>
        <time>2017-06-06T18:07:14.306Z</time>
      </trkpt>
      <trkpt lat="44.505671" lon="4.710777">
        <ele>69.997666</ele>
        <time>2017-06-06T18:08:18.570Z</time>
      </trkpt>
      <trkpt lat="44.505379" lon="4.710066">
        <ele>69.524308</ele>
        <time>2017-06-06T18:08:30.320Z</time>
      </trkpt>
      <trkpt lat="44.505144" lon="4.709564">
        <ele>69.206685</ele>
        <time>2017-06-06T18:08:38.888Z</time>
      </trkpt>
      <trkpt lat="44.505053" lon="4.709451">
        <ele>69.124567</ele>
        <time>2017-06-06T18:08:41.248Z</time>
      </trkpt>
      <trkpt lat="44.504551" lon="4.708206">
        <ele>68.435488</ele>
        <time>2017-06-06T18:09:02.322Z</time>
      </trkpt>
      <trkpt lat="44.504266" lon="4.707702">
        <ele>68.135379</ele>
        <time>2017-06-06T18:09:12.712Z</time>
      </trkpt>
      <trkpt lat="44.504255" lon="4.707607">
        <ele>68.126993</ele>
        <time>2017-06-06T18:09:14.247Z</time>
      </trkpt>
      <trkpt lat="44.504085" lon="4.707420">
        <ele>68.100592</ele>
        <time>2017-06-06T18:09:19.430Z</time>
      </trkpt>
      <trkpt lat="44.503763" lon="4.707174">
        <ele>68.055787</ele>
        <time>2017-06-06T18:09:28.142Z</time>
      </trkpt>
      <trkpt lat="44.503661" lon="4.707160">
        <ele>68.043265</ele>
        <time>2017-06-06T18:09:30.576Z</time>
      </trkpt>
      <trkpt lat="44.503574" lon="4.707253">
        <ele>68.029898</ele>
        <time>2017-06-06T18:09:33.264Z</time>
      </trkpt>
      <trkpt lat="44.503393" lon="4.707588">
        <ele>67.993274</ele>
        <time>2017-06-06T18:09:40.045Z</time>
      </trkpt>
      <trkpt lat="44.503108" lon="4.708033">
        <ele>67.941155</ele>
        <time>2017-06-06T18:09:49.818Z</time>
      </trkpt>
      <trkpt lat="44.503023" lon="4.707898">
        <ele>67.925462</ele>
        <time>2017-06-06T18:09:52.505Z</time>
      </trkpt>
      <trkpt lat="44.502899" lon="4.707689">
        <ele>67.759108</ele>
        <time>2017-06-06T18:09:56.964Z</time>
      </trkpt>
      <trkpt lat="44.502598" lon="4.707990">
        <ele>67.311246</ele>
        <time>2017-06-06T18:10:04.726Z</time>
      </trkpt>
      <trkpt lat="44.502192" lon="4.707637">
        <ele>66.732538</ele>
        <time>2017-06-06T18:10:14.130Z</time>
      </trkpt>
      <trkpt lat="44.502141" lon="4.707495">
        <ele>66.595174</ele>
        <time>2017-06-06T18:10:16.313Z</time>
      </trkpt>
      <trkpt lat="44.502104" lon="4.707110">
        <ele>66.259534</ele>
        <time>2017-06-06T18:10:21.555Z</time>
      </trkpt>
      <trkpt lat="44.501739" lon="4.706171">
        <ele>65.395904</ele>
        <time>2017-06-06T18:10:35.869Z</time>
      </trkpt>
      <trkpt lat="44.501404" lon="4.705758">
        <ele>64.936337</ele>
        <time>2017-06-06T18:10:44.323Z</time>
      </trkpt>
      <trkpt lat="44.501104" lon="4.704943">
        <ele>64.262433</ele>
        <time>2017-06-06T18:10:57.422Z</time>
      </trkpt>
      <trkpt lat="44.501043" lon="4.704841">
        <ele>64.164624</ele>
        <time>2017-06-06T18:10:59.284Z</time>
      </trkpt>
      <trkpt lat="44.500706" lon="4.705293">
        <ele>64.123491</ele>
        <time>2017-06-06T18:11:09.942Z</time>
      </trkpt>
      <trkpt lat="44.500548" lon="4.705510">
        <ele>64.391753</ele>
        <time>2017-06-06T18:11:15.693Z</time>
      </trkpt>
      <trkpt lat="44.500381" lon="4.705738">
        <ele>64.674474</ele>
        <time>2017-06-06T18:11:22.560Z</time>
      </trkpt>
      <trkpt lat="44.499970" lon="4.706298">
        <ele>65.369595</ele>
        <time>2017-06-06T18:11:38.829Z</time>
      </trkpt>
      <trkpt lat="44.499527" lon="4.706903">
        <ele>66.126615</ele>
        <time>2017-06-06T18:11:56.689Z</time>
      </trkpt>
      <trkpt lat="44.499404" lon="4.707070">
        <ele>66.361869</ele>
        <time>2017-06-06T18:12:02.211Z</time>
      </trkpt>
      <trkpt lat="44.499339" lon="4.707160">
        <ele>66.487388</ele>
        <time>2017-06-06T18:12:04.390Z</time>
      </trkpt>
      <trkpt lat="44.498212" lon="4.708740">
        <ele>68.594626</ele>
        <time>2017-06-06T18:12:48.896Z</time>
      </trkpt>
      <trkpt lat="44.498135" lon="4.708847">
        <ele>68.654729</ele>
        <time>2017-06-06T18:12:51.595Z</time>
      </trkpt>
      <trkpt lat="44.498062" lon="4.708850">
        <ele>68.695216</ele>
        <time>2017-06-06T18:12:53.447Z</time>
      </trkpt>
      <trkpt lat="44.497836" lon="4.708890">
        <ele>68.821500</ele>
        <time>2017-06-06T18:12:58.860Z</time>
      </trkpt>
      <trkpt lat="44.497655" lon="4.709043">
        <ele>68.938671</ele>
        <time>2017-06-06T18:13:04.239Z</time>
      </trkpt>
      <trkpt lat="44.496679" lon="4.710376">
        <ele>69.472618</ele>
        <time>2017-06-06T18:13:38.189Z</time>
      </trkpt>
      <trkpt lat="44.496659" lon="4.710705">
        <ele>69.420373</ele>
        <time>2017-06-06T18:13:43.716Z</time>
      </trkpt>
      <trkpt lat="44.496671" lon="4.710883">
        <ele>69.392084</ele>
        <time>2017-06-06T18:13:46.551Z</time>
      </trkpt>
      <trkpt lat="44.496550" lon="4.711063">
        <ele>69.352949</ele>
        <time>2017-06-06T18:13:50.568Z</time>
      </trkpt>
      <trkpt lat="44.496335" lon="4.711143">
        <ele>69.303606</ele>
        <time>2017-06-06T18:13:55.439Z</time>
      </trkpt>
      <trkpt lat="44.496230" lon="4.711148">
        <ele>69.280301</ele>
        <time>2017-06-06T18:13:57.776Z</time>
      </trkpt>
      <trkpt lat="44.496012" lon="4.711059">
        <ele>69.229935</ele>
        <time>2017-06-06T18:14:02.629Z</time>
      </trkpt>
      <trkpt lat="44.495708" lon="4.711053">
        <ele>69.162494</ele>
        <time>2017-06-06T18:14:09.114Z</time>
      </trkpt>
      <trkpt lat="44.495360" lon="4.711178">
        <ele>68.950952</ele>
        <time>2017-06-06T18:14:16.603Z</time>
      </trkpt>
      <trkpt lat="44.494668" lon="4.711240">
        <ele>68.422351</ele>
        <time>2017-06-06T18:14:30.729Z</time>
      </trkpt>
      <trkpt lat="44.494461" lon="4.711301">
        <ele>68.261102</ele>
        <time>2017-06-06T18:14:35.022Z</time>
      </trkpt>
      <trkpt lat="44.494175" lon="4.711564">
        <ele>68.000359</ele>
        <time>2017-06-06T18:14:42.305Z</time>
      </trkpt>
      <trkpt lat="44.493750" lon="4.711587">
        <ele>67.701026</ele>
        <time>2017-06-06T18:14:51.035Z</time>
      </trkpt>
      <trkpt lat="44.493616" lon="4.711642">
        <ele>67.624143</ele>
        <time>2017-06-06T18:14:54.059Z</time>
      </trkpt>
      <trkpt lat="44.493495" lon="4.711812">
        <ele>67.529815</ele>
        <time>2017-06-06T18:14:57.767Z</time>
      </trkpt>
      <trkpt lat="44.493269" lon="4.712278">
        <ele>67.308480</ele>
        <time>2017-06-06T18:15:06.147Z</time>
      </trkpt>
      <trkpt lat="44.493137" lon="4.712586">
        <ele>67.167347</ele>
        <time>2017-06-06T18:15:11.817Z</time>
      </trkpt>
      <trkpt lat="44.493084" lon="4.712607">
        <ele>67.137020</ele>
        <time>2017-06-06T18:15:13.045Z</time>
      </trkpt>
      <trkpt lat="44.493034" lon="4.712595">
        <ele>67.109088</ele>
        <time>2017-06-06T18:15:13.982Z</time>
      </trkpt>
      <trkpt lat="44.492898" lon="4.712382">
        <ele>66.996804</ele>
        <time>2017-06-06T18:15:18.533Z</time>
      </trkpt>
      <trkpt lat="44.488956" lon="4.709075">
        <ele>65.082001</ele>
        <time>2017-06-06T18:16:57.598Z</time>
      </trkpt>
      <trkpt lat="44.488539" lon="4.708601">
        <ele>65.057276</ele>
        <time>2017-06-06T18:17:09.912Z</time>
      </trkpt>
      <trkpt lat="44.488044" lon="4.707968">
        <ele>65.028214</ele>
        <time>2017-06-06T18:17:25.995Z</time>
      </trkpt>
      <trkpt lat="44.485083" lon="4.703692">
        <ele>67.119284</ele>
        <time>2017-06-06T18:19:15.532Z</time>
      </trkpt>
      <trkpt lat="44.483271" lon="4.701364">
        <ele>65.899789</ele>
        <time>2017-06-06T18:20:07.454Z</time>
      </trkpt>
      <trkpt lat="44.483080" lon="4.701224">
        <ele>65.728636</ele>
        <time>2017-06-06T18:20:11.632Z</time>
      </trkpt>
      <trkpt lat="44.482462" lon="4.701124">
        <ele>65.257824</ele>
        <time>2017-06-06T18:20:24.009Z</time>
      </trkpt>
      <trkpt lat="44.482304" lon="4.701201">
        <ele>65.135910</ele>
        <time>2017-06-06T18:20:27.390Z</time>
      </trkpt>
      <trkpt lat="44.482150" lon="4.701438">
        <ele>64.969224</ele>
        <time>2017-06-06T18:20:31.979Z</time>
      </trkpt>
      <trkpt lat="44.481797" lon="4.701553">
        <ele>64.705095</ele>
        <time>2017-06-06T18:20:39.386Z</time>
      </trkpt>
      <trkpt lat="44.481764" lon="4.701226">
        <ele>64.533366</ele>
        <time>2017-06-06T18:20:44.139Z</time>
      </trkpt>
      <trkpt lat="44.481387" lon="4.696989">
        <ele>63.885457</ele>
        <time>2017-06-06T18:21:50.753Z</time>
      </trkpt>
      <trkpt lat="44.481364" lon="4.696734">
        <ele>63.866215</ele>
        <time>2017-06-06T18:21:54.710Z</time>
      </trkpt>
      <trkpt lat="44.481297" lon="4.695775">
        <ele>63.794081</ele>
        <time>2017-06-06T18:22:09.087Z</time>
      </trkpt>
      <trkpt lat="44.481137" lon="4.693969">
        <ele>64.495156</ele>
        <time>2017-06-06T18:22:40.554Z</time>
      </trkpt>
      <trkpt lat="44.481087" lon="4.693416">
        <ele>64.738276</ele>
        <time>2017-06-06T18:22:50.963Z</time>
      </trkpt>
      <trkpt lat="44.481028" lon="4.692817">
        <ele>65.000865</ele>
        <time>2017-06-06T18:23:02.521Z</time>
      </trkpt>
      <trkpt lat="44.480567" lon="4.692993">
        <ele>65.290206</ele>
        <time>2017-06-06T18:23:15.793Z</time>
      </trkpt>
      <trkpt lat="44.480263" lon="4.693264">
        <ele>65.508382</ele>
        <time>2017-06-06T18:23:25.900Z</time>
      </trkpt>
      <trkpt lat="44.479990" lon="4.693577">
        <ele>65.721972</ele>
        <time>2017-06-06T18:23:34.703Z</time>
      </trkpt>
      <trkpt lat="44.479673" lon="4.693617">
        <ele>65.914715</ele>
        <time>2017-06-06T18:23:41.996Z</time>
      </trkpt>
      <trkpt lat="44.478836" lon="4.693962">
        <ele>65.242294</ele>
        <time>2017-06-06T18:24:00.170Z</time>
      </trkpt>
      <trkpt lat="44.478807" lon="4.693973">
        <ele>65.214382</ele>
        <time>2017-06-06T18:24:00.696Z</time>
      </trkpt>
      <trkpt lat="44.478595" lon="4.694051">
        <ele>65.010748</ele>
        <time>2017-06-06T18:24:05.107Z</time>
      </trkpt>
      <trkpt lat="44.478101" lon="4.694084">
        <ele>64.551271</ele>
        <time>2017-06-06T18:24:14.773Z</time>
      </trkpt>
      <trkpt lat="44.477598" lon="4.694383">
        <ele>64.045322</ele>
        <time>2017-06-06T18:24:25.547Z</time>
      </trkpt>
      <trkpt lat="44.477493" lon="4.694484">
        <ele>63.927778</ele>
        <time>2017-06-06T18:24:28.093Z</time>
      </trkpt>
      <trkpt lat="44.476973" lon="4.695023">
        <ele>63.330820</ele>
        <time>2017-06-06T18:24:41.224Z</time>
      </trkpt>
      <trkpt lat="44.476585" lon="4.695110">
        <ele>62.968147</ele>
        <time>2017-06-06T18:24:49.353Z</time>
      </trkpt>
      <trkpt lat="44.475767" lon="4.695030">
        <ele>62.456396</ele>
        <time>2017-06-06T18:25:06.491Z</time>
      </trkpt>
      <trkpt lat="44.474635" lon="4.695596">
        <ele>61.984170</ele>
        <time>2017-06-06T18:25:32.668Z</time>
      </trkpt>
      <trkpt lat="44.473413" lon="4.696166">
        <ele>62.481853</ele>
        <time>2017-06-06T18:26:03.362Z</time>
      </trkpt>
      <trkpt lat="44.473078" lon="4.696323">
        <ele>62.650427</ele>
        <time>2017-06-06T18:26:13.084Z</time>
      </trkpt>
      <trkpt lat="44.472986" lon="4.696330">
        <ele>62.694397</ele>
        <time>2017-06-06T18:26:15.547Z</time>
      </trkpt>
      <trkpt lat="44.471936" lon="4.696417">
        <ele>63.701104</ele>
        <time>2017-06-06T18:26:45.044Z</time>
      </trkpt>
      <trkpt lat="44.471604" lon="4.696444">
        <ele>64.056808</ele>
        <time>2017-06-06T18:26:54.385Z</time>
      </trkpt>
      <trkpt lat="44.470960" lon="4.696334">
        <ele>64.723852</ele>
        <time>2017-06-06T18:27:12.475Z</time>
      </trkpt>
      <trkpt lat="44.468354" lon="4.696527">
        <ele>65.158475</ele>
        <time>2017-06-06T18:28:14.540Z</time>
      </trkpt>
      <trkpt lat="44.465726" lon="4.697468">
        <ele>64.329259</ele>
        <time>2017-06-06T18:29:14.059Z</time>
      </trkpt>
      <trkpt lat="44.463951" lon="4.697758">
        <ele>62.818444</ele>
        <time>2017-06-06T18:29:50.512Z</time>
      </trkpt>
      <trkpt lat="44.463616" lon="4.697776">
        <ele>62.534119</ele>
        <time>2017-06-06T18:29:57.220Z</time>
      </trkpt>
      <trkpt lat="44.463537" lon="4.697777">
        <ele>62.467213</ele>
        <time>2017-06-06T18:29:58.830Z</time>
      </trkpt>
      <trkpt lat="44.462974" lon="4.697831">
        <ele>61.989311</ele>
        <time>2017-06-06T18:30:10.319Z</time>
      </trkpt>
      <trkpt lat="44.462881" lon="4.697833">
        <ele>61.910543</ele>
        <time>2017-06-06T18:30:12.121Z</time>
      </trkpt>
      <trkpt lat="44.462079" lon="4.697858">
        <ele>61.245698</ele>
        <time>2017-06-06T18:30:28.719Z</time>
      </trkpt>
      <trkpt lat="44.460931" lon="4.698167">
        <ele>60.950175</ele>
        <time>2017-06-06T18:30:54.404Z</time>
      </trkpt>
      <trkpt lat="44.460190" lon="4.698146">
        <ele>60.819802</ele>
        <time>2017-06-06T18:31:11.616Z</time>
      </trkpt>
      <trkpt lat="44.458899" lon="4.697926">
        <ele>61.036307</ele>
        <time>2017-06-06T18:31:42.737Z</time>
      </trkpt>
      <trkpt lat="44.457530" lon="4.697553">
        <ele>61.198791</ele>
        <time>2017-06-06T18:32:16.221Z</time>
      </trkpt>
      <trkpt lat="44.456430" lon="4.697251">
        <ele>61.223947</ele>
        <time>2017-06-06T18:32:42.048Z</time>
      </trkpt>
      <trkpt lat="44.455392" lon="4.696858">
        <ele>61.070330</ele>
        <time>2017-06-06T18:33:06.045Z</time>
      </trkpt>
      <trkpt lat="44.454134" lon="4.696140">
        <ele>61.325798</ele>
        <time>2017-06-06T18:33:37.027Z</time>
      </trkpt>
      <trkpt lat="44.453921" lon="4.696075">
        <ele>61.393669</ele>
        <time>2017-06-06T18:33:42.412Z</time>
      </trkpt>
      <trkpt lat="44.452855" lon="4.696135">
        <ele>63.174070</ele>
        <time>2017-06-06T18:34:10.516Z</time>
      </trkpt>
      <trkpt lat="44.452510" lon="4.695853">
        <ele>64.513915</ele>
        <time>2017-06-06T18:34:24.001Z</time>
      </trkpt>
      <trkpt lat="44.452517" lon="4.696208">
        <ele>65.364269</ele>
        <time>2017-06-06T18:34:32.557Z</time>
      </trkpt>
      <trkpt lat="44.452203" lon="4.700020">
        <ele>77.270761</ele>
        <time>2017-06-06T18:36:38.035Z</time>
      </trkpt>
      <trkpt lat="44.452182" lon="4.700282">
        <ele>77.164726</ele>
        <time>2017-06-06T18:36:41.683Z</time>
      </trkpt>
      <trkpt lat="44.452125" lon="4.700455">
        <ele>77.088094</ele>
        <time>2017-06-06T18:36:44.428Z</time>
      </trkpt>
      <trkpt lat="44.452100" lon="4.700496">
        <ele>77.066407</ele>
        <time>2017-06-06T18:36:48.620Z</time>
      </trkpt>
      <trkpt lat="44.452065" lon="4.700500">
        <ele>77.046622</ele>
        <time>2017-06-06T18:36:49.060Z</time>
      </trkpt>
      <trkpt lat="44.451973" lon="4.700499">
        <ele>76.994786</ele>
        <time>2017-06-06T18:36:51.954Z</time>
      </trkpt>
      <trkpt lat="44.451618" lon="4.700185">
        <ele>76.758241</ele>
        <time>2017-06-06T18:37:00.268Z</time>
      </trkpt>
      <trkpt lat="44.450660" lon="4.700082">
        <ele>74.831414</ele>
        <time>2017-06-06T18:37:15.228Z</time>
      </trkpt>
      <trkpt lat="44.449874" lon="4.699912">
        <ele>71.167061</ele>
        <time>2017-06-06T18:37:26.867Z</time>
      </trkpt>
      <trkpt lat="44.449809" lon="4.699960">
        <ele>70.828513</ele>
        <time>2017-06-06T18:37:27.903Z</time>
      </trkpt>
      <trkpt lat="44.449761" lon="4.700077">
        <ele>70.384667</ele>
        <time>2017-06-06T18:37:29.457Z</time>
      </trkpt>
      <trkpt lat="44.449755" lon="4.700369">
        <ele>69.423857</ele>
        <time>2017-06-06T18:37:32.690Z</time>
      </trkpt>
      <trkpt lat="44.447992" lon="4.700597">
        <ele>64.581543</ele>
        <time>2017-06-06T18:38:04.306Z</time>
      </trkpt>
      <trkpt lat="44.447935" lon="4.701389">
        <ele>63.550662</ele>
        <time>2017-06-06T18:38:15.170Z</time>
      </trkpt>
      <trkpt lat="44.447791" lon="4.701489">
        <ele>63.368621</ele>
        <time>2017-06-06T18:38:18.176Z</time>
      </trkpt>
      <trkpt lat="44.447677" lon="4.701550">
        <ele>63.230402</ele>
        <time>2017-06-06T18:38:20.611Z</time>
      </trkpt>
      <trkpt lat="44.447165" lon="4.701821">
        <ele>62.610478</ele>
        <time>2017-06-06T18:38:31.411Z</time>
      </trkpt>
      <trkpt lat="44.447034" lon="4.701979">
        <ele>62.414681</ele>
        <time>2017-06-06T18:38:35.026Z</time>
      </trkpt>
      <trkpt lat="44.446581" lon="4.702242">
        <ele>61.859277</ele>
        <time>2017-06-06T18:38:45.342Z</time>
      </trkpt>
      <trkpt lat="44.446530" lon="4.702273">
        <ele>61.803447</ele>
        <time>2017-06-06T18:38:46.424Z</time>
      </trkpt>
      <trkpt lat="44.445883" lon="4.702665">
        <ele>61.632726</ele>
        <time>2017-06-06T18:39:01.644Z</time>
      </trkpt>
      <trkpt lat="44.445611" lon="4.702830">
        <ele>61.560941</ele>
        <time>2017-06-06T18:39:08.265Z</time>
      </trkpt>
      <trkpt lat="44.445326" lon="4.703015">
        <ele>61.484868</ele>
        <time>2017-06-06T18:39:15.465Z</time>
      </trkpt>
      <trkpt lat="44.444546" lon="4.703494">
        <ele>61.441209</ele>
        <time>2017-06-06T18:39:35.408Z</time>
      </trkpt>
      <trkpt lat="44.444166" lon="4.703775">
        <ele>61.522718</ele>
        <time>2017-06-06T18:39:45.701Z</time>
      </trkpt>
      <trkpt lat="44.443928" lon="4.703927">
        <ele>61.572336</ele>
        <time>2017-06-06T18:39:51.945Z</time>
      </trkpt>
      <trkpt lat="44.443779" lon="4.704044">
        <ele>61.604737</ele>
        <time>2017-06-06T18:39:56.082Z</time>
      </trkpt>
      <trkpt lat="44.443334" lon="4.704036">
        <ele>61.689155</ele>
        <time>2017-06-06T18:40:06.963Z</time>
      </trkpt>
      <trkpt lat="44.443246" lon="4.704017">
        <ele>61.706045</ele>
        <time>2017-06-06T18:40:09.050Z</time>
      </trkpt>
      <trkpt lat="44.443105" lon="4.704033">
        <ele>61.728019</ele>
        <time>2017-06-06T18:40:12.569Z</time>
      </trkpt>
      <trkpt lat="44.442186" lon="4.704369">
        <ele>61.868212</ele>
        <time>2017-06-06T18:40:35.328Z</time>
      </trkpt>
      <trkpt lat="44.441956" lon="4.704493">
        <ele>61.904589</ele>
        <time>2017-06-06T18:40:41.285Z</time>
      </trkpt>
      <trkpt lat="44.441907" lon="4.704678">
        <ele>61.925384</ele>
        <time>2017-06-06T18:40:44.290Z</time>
      </trkpt>
      <trkpt lat="44.441783" lon="4.704893">
        <ele>61.954510</ele>
        <time>2017-06-06T18:40:49.027Z</time>
      </trkpt>
      <trkpt lat="44.441622" lon="4.705040">
        <ele>61.977876</ele>
        <time>2017-06-06T18:40:53.197Z</time>
      </trkpt>
      <trkpt lat="44.441543" lon="4.705152">
        <ele>61.981537</ele>
        <time>2017-06-06T18:40:56.015Z</time>
      </trkpt>
      <trkpt lat="44.441450" lon="4.705214">
        <ele>61.984892</ele>
        <time>2017-06-06T18:40:58.436Z</time>
      </trkpt>
      <trkpt lat="44.441298" lon="4.705235">
        <ele>61.989867</ele>
        <time>2017-06-06T18:41:01.926Z</time>
      </trkpt>
      <trkpt lat="44.440776" lon="4.704926">
        <ele>62.008325</ele>
        <time>2017-06-06T18:41:15.735Z</time>
      </trkpt>
      <trkpt lat="44.440724" lon="4.704893">
        <ele>62.010184</ele>
        <time>2017-06-06T18:41:16.973Z</time>
      </trkpt>
      <trkpt lat="44.440693" lon="4.704874">
        <ele>62.011286</ele>
        <time>2017-06-06T18:41:17.671Z</time>
      </trkpt>
      <trkpt lat="44.440561" lon="4.704784">
        <ele>62.016068</ele>
        <time>2017-06-06T18:41:21.330Z</time>
      </trkpt>
      <trkpt lat="44.440317" lon="4.704533">
        <ele>62.025928</ele>
        <time>2017-06-06T18:41:28.175Z</time>
      </trkpt>
      <trkpt lat="44.440080" lon="4.705046">
        <ele>62.043745</ele>
        <time>2017-06-06T18:41:38.091Z</time>
      </trkpt>
      <trkpt lat="44.439889" lon="4.705091">
        <ele>62.054519</ele>
        <time>2017-06-06T18:41:42.289Z</time>
      </trkpt>
      <trkpt lat="44.439084" lon="4.705196">
        <ele>62.099494</ele>
        <time>2017-06-06T18:42:01.091Z</time>
      </trkpt>
      <trkpt lat="44.439020" lon="4.705234">
        <ele>62.103361</ele>
        <time>2017-06-06T18:42:02.848Z</time>
      </trkpt>
      <trkpt lat="44.439009" lon="4.705215">
        <ele>62.104332</ele>
        <time>2017-06-06T18:42:03.246Z</time>
      </trkpt>
      <trkpt lat="44.439002" lon="4.705208">
        <ele>62.104811</ele>
        <time>2017-06-06T18:42:03.462Z</time>
      </trkpt>
      <trkpt lat="44.438986" lon="4.705200">
        <ele>62.105756</ele>
        <time>2017-06-06T18:42:03.843Z</time>
      </trkpt>
      <trkpt lat="44.438969" lon="4.705200">
        <ele>62.106701</ele>
        <time>2017-06-06T18:42:04.249Z</time>
      </trkpt>
      <trkpt lat="44.438937" lon="4.705228">
        <ele>62.108800</ele>
        <time>2017-06-06T18:42:05.191Z</time>
      </trkpt>
      <trkpt lat="44.438930" lon="4.705250">
        <ele>62.109757</ele>
        <time>2017-06-06T18:42:05.607Z</time>
      </trkpt>
      <trkpt lat="44.438889" lon="4.705234">
        <ele>62.112125</ele>
        <time>2017-06-06T18:42:06.614Z</time>
      </trkpt>
      <trkpt lat="44.438141" lon="4.705202">
        <ele>62.260218</ele>
        <time>2017-06-06T18:42:24.607Z</time>
      </trkpt>
      <trkpt lat="44.437782" lon="4.705190">
        <ele>62.394196</ele>
        <time>2017-06-06T18:42:33.292Z</time>
      </trkpt>
      <trkpt lat="44.437314" lon="4.705252">
        <ele>62.569581</ele>
        <time>2017-06-06T18:42:44.958Z</time>
      </trkpt>
      <trkpt lat="44.437016" lon="4.705292">
        <ele>62.681271</ele>
        <time>2017-06-06T18:42:52.763Z</time>
      </trkpt>
      <trkpt lat="44.436297" lon="4.705387">
        <ele>62.741623</ele>
        <time>2017-06-06T18:43:10.698Z</time>
      </trkpt>
      <trkpt lat="44.435571" lon="4.705478">
        <ele>62.620229</ele>
        <time>2017-06-06T18:43:27.787Z</time>
      </trkpt>
      <trkpt lat="44.435396" lon="4.705463">
        <ele>62.591030</ele>
        <time>2017-06-06T18:43:31.536Z</time>
      </trkpt>
      <trkpt lat="44.433581" lon="4.705538">
        <ele>61.303618</ele>
        <time>2017-06-06T18:44:08.667Z</time>
      </trkpt>
      <trkpt lat="44.432293" lon="4.706193">
        <ele>60.142166</ele>
        <time>2017-06-06T18:44:36.179Z</time>
      </trkpt>
      <trkpt lat="44.432145" lon="4.706267">
        <ele>60.015219</ele>
        <time>2017-06-06T18:44:39.362Z</time>
      </trkpt>
      <trkpt lat="44.431612" lon="4.706536">
        <ele>59.557550</ele>
        <time>2017-06-06T18:44:51.381Z</time>
      </trkpt>
      <trkpt lat="44.431058" lon="4.706985">
        <ele>59.298852</ele>
        <time>2017-06-06T18:45:05.200Z</time>
      </trkpt>
      <trkpt lat="44.430401" lon="4.707405">
        <ele>59.134156</ele>
        <time>2017-06-06T18:45:21.453Z</time>
      </trkpt>
      <trkpt lat="44.429658" lon="4.708017">
        <ele>58.955624</ele>
        <time>2017-06-06T18:45:41.236Z</time>
      </trkpt>
      <trkpt lat="44.428156" lon="4.709025">
        <ele>58.701180</ele>
        <time>2017-06-06T18:46:18.831Z</time>
      </trkpt>
      <trkpt lat="44.427375" lon="4.709476">
        <ele>58.535078</ele>
        <time>2017-06-06T18:46:37.541Z</time>
      </trkpt>
      <trkpt lat="44.425132" lon="4.709978">
        <ele>58.383124</ele>
        <time>2017-06-06T18:47:28.877Z</time>
      </trkpt>
      <trkpt lat="44.425065" lon="4.709984">
        <ele>58.383897</ele>
        <time>2017-06-06T18:47:30.587Z</time>
      </trkpt>
      <trkpt lat="44.425067" lon="4.710147">
        <ele>58.385236</ele>
        <time>2017-06-06T18:47:33.441Z</time>
      </trkpt>
      <trkpt lat="44.425082" lon="4.710301">
        <ele>58.386513</ele>
        <time>2017-06-06T18:47:36.145Z</time>
      </trkpt>
      <trkpt lat="44.425084" lon="4.710384">
        <ele>58.387195</ele>
        <time>2017-06-06T18:47:37.588Z</time>
      </trkpt>
      <trkpt lat="44.425085" lon="4.710411">
        <ele>58.387417</ele>
        <time>2017-06-06T18:47:38.339Z</time>
      </trkpt>
      <trkpt lat="44.425023" lon="4.711242">
        <ele>58.660106</ele>
        <time>2017-06-06T18:47:53.170Z</time>
      </trkpt>
      <trkpt lat="44.425004" lon="4.711646">
        <ele>58.794366</ele>
        <time>2017-06-06T18:48:00.603Z</time>
      </trkpt>
      <trkpt lat="44.424905" lon="4.711641">
        <ele>58.840364</ele>
        <time>2017-06-06T18:48:03.015Z</time>
      </trkpt>
      <trkpt lat="44.423234" lon="4.711592">
        <ele>59.320433</ele>
        <time>2017-06-06T18:48:43.301Z</time>
      </trkpt>
      <trkpt lat="44.420764" lon="4.711521">
        <ele>59.041214</ele>
        <time>2017-06-06T18:49:36.332Z</time>
      </trkpt>
      <trkpt lat="44.419693" lon="4.711491">
        <ele>58.759850</ele>
        <time>2017-06-06T18:49:58.502Z</time>
      </trkpt>
      <trkpt lat="44.419382" lon="4.711540">
        <ele>58.676894</ele>
        <time>2017-06-06T18:50:05.098Z</time>
      </trkpt>
      <trkpt lat="44.418446" lon="4.711512">
        <ele>58.538191</ele>
        <time>2017-06-06T18:50:25.452Z</time>
      </trkpt>
      <trkpt lat="44.417787" lon="4.711492">
        <ele>58.660437</ele>
        <time>2017-06-06T18:50:40.554Z</time>
      </trkpt>
      <trkpt lat="44.415499" lon="4.711436">
        <ele>59.259446</ele>
        <time>2017-06-06T18:51:34.361Z</time>
      </trkpt>
      <trkpt lat="44.414949" lon="4.711409">
        <ele>59.452120</ele>
        <time>2017-06-06T18:51:47.057Z</time>
      </trkpt>
      <trkpt lat="44.413222" lon="4.711309">
        <ele>60.299719</ele>
        <time>2017-06-06T18:52:28.309Z</time>
      </trkpt>
      <trkpt lat="44.413035" lon="4.711292">
        <ele>60.515082</ele>
        <time>2017-06-06T18:52:33.294Z</time>
      </trkpt>
      <trkpt lat="44.412988" lon="4.711288">
        <ele>60.569197</ele>
        <time>2017-06-06T18:52:34.438Z</time>
      </trkpt>
      <trkpt lat="44.411040" lon="4.711050">
        <ele>62.479941</ele>
        <time>2017-06-06T18:53:28.374Z</time>
      </trkpt>
      <trkpt lat="44.410342" lon="4.710853">
        <ele>62.782503</ele>
        <time>2017-06-06T18:53:45.617Z</time>
      </trkpt>
      <trkpt lat="44.409474" lon="4.710424">
        <ele>62.955882</ele>
        <time>2017-06-06T18:54:04.875Z</time>
      </trkpt>
      <trkpt lat="44.408770" lon="4.709793">
        <ele>62.701240</ele>
        <time>2017-06-06T18:54:22.210Z</time>
      </trkpt>
      <trkpt lat="44.407250" lon="4.708172">
        <ele>62.104001</ele>
        <time>2017-06-06T18:55:03.634Z</time>
      </trkpt>
      <trkpt lat="44.406826" lon="4.707653">
        <ele>61.918657</ele>
        <time>2017-06-06T18:55:15.176Z</time>
      </trkpt>
      <trkpt lat="44.406223" lon="4.707254">
        <ele>61.297206</ele>
        <time>2017-06-06T18:55:28.260Z</time>
      </trkpt>
      <trkpt lat="44.405757" lon="4.707126">
        <ele>60.854733</ele>
        <time>2017-06-06T18:55:37.243Z</time>
      </trkpt>
      <trkpt lat="44.404532" lon="4.706708">
        <ele>59.899295</ele>
        <time>2017-06-06T18:56:01.584Z</time>
      </trkpt>
      <trkpt lat="44.404224" lon="4.706563">
        <ele>59.712367</ele>
        <time>2017-06-06T18:56:08.271Z</time>
      </trkpt>
      <trkpt lat="44.404295" lon="4.706647">
        <ele>59.658890</ele>
        <time>2017-06-06T18:56:10.325Z</time>
      </trkpt>
      <trkpt lat="44.404336" lon="4.706778">
        <ele>59.600114</ele>
        <time>2017-06-06T18:56:12.736Z</time>
      </trkpt>
      <trkpt lat="44.404340" lon="4.706919">
        <ele>59.542122</ele>
        <time>2017-06-06T18:56:14.805Z</time>
      </trkpt>
      <trkpt lat="44.404333" lon="4.707030">
        <ele>59.496328</ele>
        <time>2017-06-06T18:56:16.487Z</time>
      </trkpt>
      <trkpt lat="44.404297" lon="4.707285">
        <ele>59.389505</ele>
        <time>2017-06-06T18:56:20.831Z</time>
      </trkpt>
      <trkpt lat="44.404278" lon="4.707640">
        <ele>59.243204</ele>
        <time>2017-06-06T18:56:26.319Z</time>
      </trkpt>
      <trkpt lat="44.404283" lon="4.707786">
        <ele>59.201324</ele>
        <time>2017-06-06T18:56:28.895Z</time>
      </trkpt>
      <trkpt lat="44.404211" lon="4.707812">
        <ele>59.180481</ele>
        <time>2017-06-06T18:56:30.463Z</time>
      </trkpt>
      <trkpt lat="44.396558" lon="4.706765">
        <ele>57.037413</ele>
        <time>2017-06-06T18:59:20.615Z</time>
      </trkpt>
      <trkpt lat="44.396098" lon="4.706667">
        <ele>56.917900</ele>
        <time>2017-06-06T18:59:30.741Z</time>
      </trkpt>
      <trkpt lat="44.396023" lon="4.707328">
        <ele>56.795068</ele>
        <time>2017-06-06T18:59:41.306Z</time>
      </trkpt>
      <trkpt lat="44.395959" lon="4.707378">
        <ele>56.776242</ele>
        <time>2017-06-06T18:59:42.955Z</time>
      </trkpt>
      <trkpt lat="44.395859" lon="4.707372">
        <ele>56.750533</ele>
        <time>2017-06-06T18:59:45.192Z</time>
      </trkpt>
      <trkpt lat="44.392682" lon="4.706832">
        <ele>56.872641</ele>
        <time>2017-06-06T19:01:00.341Z</time>
      </trkpt>
      <trkpt lat="44.386613" lon="4.705892">
        <ele>56.600973</ele>
        <time>2017-06-06T19:03:20.185Z</time>
      </trkpt>
      <trkpt lat="44.382433" lon="4.705269">
        <ele>57.034143</ele>
        <time>2017-06-06T19:04:59.808Z</time>
      </trkpt>
      <trkpt lat="44.382240" lon="4.705400">
        <ele>57.044371</ele>
        <time>2017-06-06T19:05:04.826Z</time>
      </trkpt>
      <trkpt lat="44.382011" lon="4.705291">
        <ele>57.055904</ele>
        <time>2017-06-06T19:05:10.396Z</time>
      </trkpt>
      <trkpt lat="44.381865" lon="4.705188">
        <ele>57.063701</ele>
        <time>2017-06-06T19:05:13.984Z</time>
      </trkpt>
      <trkpt lat="44.381855" lon="4.704918">
        <ele>57.072914</ele>
        <time>2017-06-06T19:05:18.265Z</time>
      </trkpt>
      <trkpt lat="44.381911" lon="4.704918">
        <ele>57.075584</ele>
        <time>2017-06-06T19:05:19.443Z</time>
      </trkpt>
      <trkpt lat="44.381948" lon="4.704669">
        <ele>57.101011</ele>
        <time>2017-06-06T19:05:23.417Z</time>
      </trkpt>
      <trkpt lat="44.381208" lon="4.704595">
        <ele>57.239150</ele>
        <time>2017-06-06T19:05:39.757Z</time>
      </trkpt>
      <trkpt lat="44.380404" lon="4.704481">
        <ele>57.389621</ele>
        <time>2017-06-06T19:05:58.360Z</time>
      </trkpt>
      <trkpt lat="44.380314" lon="4.704469">
        <ele>57.406455</ele>
        <time>2017-06-06T19:06:00.613Z</time>
      </trkpt>
      <trkpt lat="44.380211" lon="4.704455">
        <ele>57.461751</ele>
        <time>2017-06-06T19:06:03.258Z</time>
      </trkpt>
      <trkpt lat="44.379154" lon="4.704312">
        <ele>58.236970</ele>
        <time>2017-06-06T19:06:30.966Z</time>
      </trkpt>
      <trkpt lat="44.379147" lon="4.704074">
        <ele>58.361253</ele>
        <time>2017-06-06T19:06:35.559Z</time>
      </trkpt>
      <trkpt lat="44.379128" lon="4.703400">
        <ele>58.713192</ele>
        <time>2017-06-06T19:06:47.439Z</time>
      </trkpt>
      <trkpt lat="44.379117" lon="4.703143">
        <ele>58.699717</ele>
        <time>2017-06-06T19:06:51.647Z</time>
      </trkpt>
      <trkpt lat="44.379095" lon="4.702113">
        <ele>58.581197</ele>
        <time>2017-06-06T19:07:08.619Z</time>
      </trkpt>
      <trkpt lat="44.379097" lon="4.702066">
        <ele>58.575781</ele>
        <time>2017-06-06T19:07:09.398Z</time>
      </trkpt>
      <trkpt lat="44.379065" lon="4.702055">
        <ele>58.570479</ele>
        <time>2017-06-06T19:07:10.153Z</time>
      </trkpt>
      <trkpt lat="44.378984" lon="4.702050">
        <ele>58.557431</ele>
        <time>2017-06-06T19:07:12.063Z</time>
      </trkpt>
      <trkpt lat="44.378931" lon="4.702056">
        <ele>58.548874</ele>
        <time>2017-06-06T19:07:13.274Z</time>
      </trkpt>
      <trkpt lat="44.378919" lon="4.701969">
        <ele>58.538683</ele>
        <time>2017-06-06T19:07:14.869Z</time>
      </trkpt>
      <trkpt lat="44.378902" lon="4.701486">
        <ele>58.483062</ele>
        <time>2017-06-06T19:07:24.280Z</time>
      </trkpt>
      <trkpt lat="44.378814" lon="4.701435">
        <ele>58.467734</ele>
        <time>2017-06-06T19:07:27.432Z</time>
      </trkpt>
      <trkpt lat="44.378740" lon="4.701068">
        <ele>58.404027</ele>
        <time>2017-06-06T19:07:36.788Z</time>
      </trkpt>
      <trkpt lat="44.378701" lon="4.700827">
        <ele>58.332526</ele>
        <time>2017-06-06T19:07:42.811Z</time>
      </trkpt>
      <trkpt lat="44.378661" lon="4.700581">
        <ele>58.259525</ele>
        <time>2017-06-06T19:07:49.092Z</time>
      </trkpt>
      <trkpt lat="44.378491" lon="4.700249">
        <ele>58.141348</ele>
        <time>2017-06-06T19:07:59.377Z</time>
      </trkpt>
      <trkpt lat="44.378457" lon="4.700178">
        <ele>58.116618</ele>
        <time>2017-06-06T19:08:01.394Z</time>
      </trkpt>
      <trkpt lat="44.378128" lon="4.699875">
        <ele>57.957155</ele>
        <time>2017-06-06T19:08:15.391Z</time>
      </trkpt>
      <trkpt lat="44.378080" lon="4.699825">
        <ele>57.932928</ele>
        <time>2017-06-06T19:08:17.476Z</time>
      </trkpt>
      <trkpt lat="44.378124" lon="4.699705">
        <ele>57.893902</ele>
        <time>2017-06-06T19:08:19.690Z</time>
      </trkpt>
      <trkpt lat="44.377990" lon="4.699680">
        <ele>57.839171</ele>
        <time>2017-06-06T19:08:22.918Z</time>
      </trkpt>
      <trkpt lat="44.377855" lon="4.699655">
        <ele>57.784040</ele>
        <time>2017-06-06T19:08:26.021Z</time>
      </trkpt>
      <trkpt lat="44.377510" lon="4.699546">
        <ele>57.710030</ele>
        <time>2017-06-06T19:08:34.544Z</time>
      </trkpt>
      <trkpt lat="44.377421" lon="4.699518">
        <ele>57.710706</ele>
        <time>2017-06-06T19:08:36.650Z</time>
      </trkpt>
      <trkpt lat="44.376367" lon="4.699181">
        <ele>57.718716</ele>
        <time>2017-06-06T19:09:01.936Z</time>
      </trkpt>
      <trkpt lat="44.376298" lon="4.699045">
        <ele>57.719599</ele>
        <time>2017-06-06T19:09:04.456Z</time>
      </trkpt>
      <trkpt lat="44.376276" lon="4.698994">
        <ele>57.719914</ele>
        <time>2017-06-06T19:09:05.416Z</time>
      </trkpt>
      <trkpt lat="44.376214" lon="4.698808">
        <ele>57.721001</ele>
        <time>2017-06-06T19:09:08.826Z</time>
      </trkpt>
      <trkpt lat="44.376101" lon="4.698757">
        <ele>57.721881</ele>
        <time>2017-06-06T19:09:11.303Z</time>
      </trkpt>
      <trkpt lat="44.375760" lon="4.698618">
        <ele>57.664816</ele>
        <time>2017-06-06T19:09:19.010Z</time>
      </trkpt>
      <trkpt lat="44.375678" lon="4.698598">
        <ele>57.650094</ele>
        <time>2017-06-06T19:09:20.733Z</time>
      </trkpt>
      <trkpt lat="44.375673" lon="4.698573">
        <ele>57.646812</ele>
        <time>2017-06-06T19:09:21.171Z</time>
      </trkpt>
      <trkpt lat="44.375645" lon="4.698502">
        <ele>57.636561</ele>
        <time>2017-06-06T19:09:22.494Z</time>
      </trkpt>
      <trkpt lat="44.375592" lon="4.698438">
        <ele>57.624178</ele>
        <time>2017-06-06T19:09:24.119Z</time>
      </trkpt>
      <trkpt lat="44.375519" lon="4.698405">
        <ele>57.610610</ele>
        <time>2017-06-06T19:09:25.721Z</time>
      </trkpt>
      <trkpt lat="44.375451" lon="4.698415">
        <ele>57.598517</ele>
        <time>2017-06-06T19:09:27.149Z</time>
      </trkpt>
      <trkpt lat="44.375424" lon="4.698429">
        <ele>57.593424</ele>
        <time>2017-06-06T19:09:27.733Z</time>
      </trkpt>
      <trkpt lat="44.375330" lon="4.698395">
        <ele>57.576252</ele>
        <time>2017-06-06T19:09:29.883Z</time>
      </trkpt>
      <trkpt lat="44.375261" lon="4.698352">
        <ele>57.562892</ele>
        <time>2017-06-06T19:09:31.650Z</time>
      </trkpt>
      <trkpt lat="44.375192" lon="4.698316">
        <ele>57.549867</ele>
        <time>2017-06-06T19:09:33.207Z</time>
      </trkpt>
      <trkpt lat="44.374183" lon="4.697521">
        <ele>57.329950</ele>
        <time>2017-06-06T19:09:57.960Z</time>
      </trkpt>
      <trkpt lat="44.373746" lon="4.697160">
        <ele>57.217189</ele>
        <time>2017-06-06T19:10:08.539Z</time>
      </trkpt>
      <trkpt lat="44.373652" lon="4.697074">
        <ele>57.192234</ele>
        <time>2017-06-06T19:10:11.310Z</time>
      </trkpt>
      <trkpt lat="44.373298" lon="4.696755">
        <ele>57.098674</ele>
        <time>2017-06-06T19:10:20.318Z</time>
      </trkpt>
      <trkpt lat="44.373059" lon="4.696544">
        <ele>57.035881</ele>
        <time>2017-06-06T19:10:26.534Z</time>
      </trkpt>
      <trkpt lat="44.372995" lon="4.696448">
        <ele>57.015032</ele>
        <time>2017-06-06T19:10:28.470Z</time>
      </trkpt>
      <trkpt lat="44.372932" lon="4.696373">
        <ele>56.988175</ele>
        <time>2017-06-06T19:10:30.216Z</time>
      </trkpt>
      <trkpt lat="44.372889" lon="4.696318">
        <ele>56.960978</ele>
        <time>2017-06-06T19:10:31.364Z</time>
      </trkpt>
      <trkpt lat="44.372879" lon="4.696284">
        <ele>56.948710</ele>
        <time>2017-06-06T19:10:31.902Z</time>
      </trkpt>
      <trkpt lat="44.372863" lon="4.696254">
        <ele>56.936221</ele>
        <time>2017-06-06T19:10:32.516Z</time>
      </trkpt>
      <trkpt lat="44.372838" lon="4.696228">
        <ele>56.921680</ele>
        <time>2017-06-06T19:10:33.302Z</time>
      </trkpt>
      <trkpt lat="44.372808" lon="4.696215">
        <ele>56.907020</ele>
        <time>2017-06-06T19:10:34.078Z</time>
      </trkpt>
      <trkpt lat="44.372776" lon="4.696215">
        <ele>56.892082</ele>
        <time>2017-06-06T19:10:34.826Z</time>
      </trkpt>
      <trkpt lat="44.372750" lon="4.696227">
        <ele>56.879302</ele>
        <time>2017-06-06T19:10:35.366Z</time>
      </trkpt>
      <trkpt lat="44.372727" lon="4.696249">
        <ele>56.866296</ele>
        <time>2017-06-06T19:10:35.912Z</time>
      </trkpt>
      <trkpt lat="44.372697" lon="4.696263">
        <ele>56.851534</ele>
        <time>2017-06-06T19:10:36.546Z</time>
      </trkpt>
      <trkpt lat="44.372533" lon="4.696257">
        <ele>56.774953</ele>
        <time>2017-06-06T19:10:39.870Z</time>
      </trkpt>
      <trkpt lat="44.372436" lon="4.696252">
        <ele>56.729643</ele>
        <time>2017-06-06T19:10:42.213Z</time>
      </trkpt>
      <trkpt lat="44.371853" lon="4.696081">
        <ele>56.451584</ele>
        <time>2017-06-06T19:10:53.964Z</time>
      </trkpt>
      <trkpt lat="44.371717" lon="4.696042">
        <ele>56.386780</ele>
        <time>2017-06-06T19:10:56.872Z</time>
      </trkpt>
      <trkpt lat="44.371267" lon="4.695910">
        <ele>56.172154</ele>
        <time>2017-06-06T19:11:06.504Z</time>
      </trkpt>
      <trkpt lat="44.370928" lon="4.695968">
        <ele>55.832823</ele>
        <time>2017-06-06T19:11:13.585Z</time>
      </trkpt>
      <trkpt lat="44.370648" lon="4.696073">
        <ele>55.537366</ele>
        <time>2017-06-06T19:11:19.548Z</time>
      </trkpt>
      <trkpt lat="44.370639" lon="4.696026">
        <ele>55.501916</ele>
        <time>2017-06-06T19:11:20.201Z</time>
      </trkpt>
      <trkpt lat="44.370560" lon="4.695937">
        <ele>55.398534</ele>
        <time>2017-06-06T19:11:22.096Z</time>
      </trkpt>
      <trkpt lat="44.370525" lon="4.695935">
        <ele>55.362832</ele>
        <time>2017-06-06T19:11:22.700Z</time>
      </trkpt>
      <trkpt lat="44.370515" lon="4.695735">
        <ele>55.216762</ele>
        <time>2017-06-06T19:11:25.450Z</time>
      </trkpt>
      <trkpt lat="44.370496" lon="4.695342">
        <ele>54.929779</ele>
        <time>2017-06-06T19:11:30.591Z</time>
      </trkpt>
      <trkpt lat="44.370489" lon="4.695212">
        <ele>54.834797</ele>
        <time>2017-06-06T19:11:32.410Z</time>
      </trkpt>
      <trkpt lat="44.370424" lon="4.694963">
        <ele>54.641664</ele>
        <time>2017-06-06T19:11:35.898Z</time>
      </trkpt>
      <trkpt lat="44.370232" lon="4.694738">
        <ele>54.386386</ele>
        <time>2017-06-06T19:11:40.635Z</time>
      </trkpt>
      <trkpt lat="44.369862" lon="4.694482">
        <ele>53.992100</ele>
        <time>2017-06-06T19:11:48.381Z</time>
      </trkpt>
      <trkpt lat="44.369686" lon="4.694467">
        <ele>53.825367</ele>
        <time>2017-06-06T19:11:51.635Z</time>
      </trkpt>
      <trkpt lat="44.369673" lon="4.694411">
        <ele>53.785567</ele>
        <time>2017-06-06T19:11:52.491Z</time>
      </trkpt>
      <trkpt lat="44.369614" lon="4.694332">
        <ele>53.708339</ele>
        <time>2017-06-06T19:11:54.105Z</time>
      </trkpt>
      <trkpt lat="44.369493" lon="4.694343">
        <ele>53.593681</ele>
        <time>2017-06-06T19:11:56.368Z</time>
      </trkpt>
      <trkpt lat="44.369462" lon="4.694383">
        <ele>53.553802</ele>
        <time>2017-06-06T19:11:57.118Z</time>
      </trkpt>
      <trkpt lat="44.369442" lon="4.694433">
        <ele>53.515073</ele>
        <time>2017-06-06T19:11:57.911Z</time>
      </trkpt>
      <trkpt lat="44.369440" lon="4.694546">
        <ele>53.438667</ele>
        <time>2017-06-06T19:11:59.532Z</time>
      </trkpt>
      <trkpt lat="44.369459" lon="4.694597">
        <ele>53.399792</ele>
        <time>2017-06-06T19:12:00.319Z</time>
      </trkpt>
      <trkpt lat="44.369481" lon="4.694630">
        <ele>53.369290</ele>
        <time>2017-06-06T19:12:00.958Z</time>
      </trkpt>
      <trkpt lat="44.369474" lon="4.694697">
        <ele>53.323520</ele>
        <time>2017-06-06T19:12:01.924Z</time>
      </trkpt>
      <trkpt lat="44.369427" lon="4.694834">
        <ele>53.220802</ele>
        <time>2017-06-06T19:12:03.881Z</time>
      </trkpt>
      <trkpt lat="44.369365" lon="4.694856">
        <ele>53.160319</ele>
        <time>2017-06-06T19:12:05.100Z</time>
      </trkpt>
      <trkpt lat="44.369243" lon="4.694838">
        <ele>53.044316</ele>
        <time>2017-06-06T19:12:07.587Z</time>
      </trkpt>
      <trkpt lat="44.369170" lon="4.694845">
        <ele>52.975126</ele>
        <time>2017-06-06T19:12:09.193Z</time>
      </trkpt>
      <trkpt lat="44.368928" lon="4.694739">
        <ele>52.735336</ele>
        <time>2017-06-06T19:12:14.100Z</time>
      </trkpt>
      <trkpt lat="44.367181" lon="4.694241">
        <ele>52.501205</ele>
        <time>2017-06-06T19:12:53.330Z</time>
      </trkpt>
      <trkpt lat="44.366430" lon="4.694159">
        <ele>52.730656</ele>
        <time>2017-06-06T19:13:10.923Z</time>
      </trkpt>
      <trkpt lat="44.365454" lon="4.693982">
        <ele>53.106208</ele>
        <time>2017-06-06T19:13:34.768Z</time>
      </trkpt>
      <trkpt lat="44.364957" lon="4.693902">
        <ele>53.273741</ele>
        <time>2017-06-06T19:13:46.879Z</time>
      </trkpt>
      <trkpt lat="44.364815" lon="4.693850">
        <ele>53.318785</ele>
        <time>2017-06-06T19:13:50.377Z</time>
      </trkpt>
      <trkpt lat="44.364517" lon="4.693812">
        <ele>53.410611</ele>
        <time>2017-06-06T19:13:57.368Z</time>
      </trkpt>
      <trkpt lat="44.364263" lon="4.693774">
        <ele>53.489001</ele>
        <time>2017-06-06T19:14:03.311Z</time>
      </trkpt>
      <trkpt lat="44.364263" lon="4.693890">
        <ele>53.514449</ele>
        <time>2017-06-06T19:14:05.334Z</time>
      </trkpt>
      <trkpt lat="44.364230" lon="4.694328">
        <ele>53.611071</ele>
        <time>2017-06-06T19:14:12.946Z</time>
      </trkpt>
      <trkpt lat="44.364214" lon="4.694564">
        <ele>53.663078</ele>
        <time>2017-06-06T19:14:17.202Z</time>
      </trkpt>
      <trkpt lat="44.364209" lon="4.694783">
        <ele>53.711147</ele>
        <time>2017-06-06T19:14:20.898Z</time>
      </trkpt>
      <trkpt lat="44.364152" lon="4.695058">
        <ele>53.729716</ele>
        <time>2017-06-06T19:14:25.858Z</time>
      </trkpt>
      <trkpt lat="44.364116" lon="4.695147">
        <ele>53.729716</ele>
        <time>2017-06-06T19:14:27.522Z</time>
      </trkpt>
      <trkpt lat="44.364085" lon="4.695185">
        <ele>53.729716</ele>
        <time>2017-06-06T19:14:28.454Z</time>
      </trkpt>
      <trkpt lat="44.363878" lon="4.695274">
        <ele>53.729716</ele>
        <time>2017-06-06T19:14:33.567Z</time>
      </trkpt>
      <trkpt lat="44.363698" lon="4.695266">
        <ele>53.729716</ele>
        <time>2017-06-06T19:14:37.720Z</time>
      </trkpt>
      <trkpt lat="44.363260" lon="4.695110">
        <ele>53.729716</ele>
        <time>2017-06-06T19:14:48.121Z</time>
      </trkpt>
      <trkpt lat="44.363222" lon="4.694935">
        <ele>53.729716</ele>
        <time>2017-06-06T19:14:51.263Z</time>
      </trkpt>
      <trkpt lat="44.363242" lon="4.694876">
        <ele>53.729716</ele>
        <time>2017-06-06T19:14:56.393Z</time>
      </trkpt>
      <trkpt lat="44.363400" lon="4.694713">
        <ele>53.729716</ele>
        <time>2017-06-06T19:15:18.273Z</time>
      </trkpt>
      <trkpt lat="44.363561" lon="4.694799">
        <ele>53.729716</ele>
        <time>2017-06-06T19:15:37.475Z</time>
      </trkpt>
    </trkseg>
  </trk>
</gpx>